EDW15M MKJS-LSZH
Flight info
| Callsign | EDW15M |
|---|---|
| Flight time | 9h 0m |
| Altitude | 35000 |
| Route | TILUP1 TILUP DCT ULDAR UM331 GHANN DCT FORST DCT ROSEA DCT PAARR DCT SMTTY DCT AVNEY DCT RENAH DCT CANEE/M081F350 DCT RUDLI DCT BALTN/M081F370 DCT SOORY DCT 42N050W 44N040W/M081F390 46N030W 47N020W 48N015W DCT OMOKO DCT GUNSO DCT RATKA/N0452F390 DCT LARLA/N0454F400 DCT GANTO/N0452F390 DCT JSY DCT ARSUK DCT RESMI DCT TEPRI DCT POGZI DCT GELTA DCT MANAG DCT PEVIT DCT BLM |
| Aircraft | A343/H-SDE2E3FGHIJ4J5M1RWXY/LB1D1 |
Departure
| Time | 2026-04-25 13:04 |
|---|---|
| Airport | Sangster International Airport (MKJS) |
Arrival
| Time | 2026-04-25 22:04 |
|---|---|
| Airport | Zürich Airport (LSZH) |
| Time | Latitude | Longitude | Altitude | Speed | Heading |
|---|---|---|---|---|---|
| 2026-04-25 12:11 | 18.50010 | -77.91372 | 40 ft | 0 kts | 182° |
| 2026-04-25 12:52 | 18.50030 | -77.91371 | 40 ft | 4 kts | 182° |
| 2026-04-25 12:52 | 18.50057 | -77.91370 | 38 ft | 3 kts | 182° |
| 2026-04-25 12:52 | 18.50078 | -77.91369 | 38 ft | 4 kts | 192° |
| 2026-04-25 12:52 | 18.50101 | -77.91358 | 38 ft | 4 kts | 230° |
| 2026-04-25 12:53 | 18.50112 | -77.91337 | 38 ft | 4 kts | 247° |
| 2026-04-25 12:53 | 18.50122 | -77.91312 | 38 ft | 2 kts | 245° |
| 2026-04-25 12:53 | 18.50123 | -77.91310 | 38 ft | 0 kts | 245° |
| 2026-04-25 12:57 | 18.50119 | -77.91321 | 41 ft | 4 kts | 245° |
| 2026-04-25 12:58 | 18.50100 | -77.91364 | 41 ft | 9 kts | 246° |
| 2026-04-25 12:58 | 18.50070 | -77.91434 | 43 ft | 12 kts | 246° |
| 2026-04-25 12:58 | 18.50037 | -77.91511 | 43 ft | 11 kts | 245° |
| 2026-04-25 12:58 | 18.50047 | -77.91572 | 38 ft | 8 kts | 320° |
| 2026-04-25 12:59 | 18.50062 | -77.91617 | 41 ft | 6 kts | 258° |
| 2026-04-25 12:59 | 18.50046 | -77.91659 | 44 ft | 7 kts | 249° |
| 2026-04-25 12:59 | 18.50022 | -77.91721 | 38 ft | 12 kts | 246° |
| 2026-04-25 12:59 | 18.49981 | -77.91817 | 39 ft | 16 kts | 245° |
| 2026-04-25 13:00 | 18.49934 | -77.91922 | 44 ft | 15 kts | 245° |
| 2026-04-25 13:00 | 18.49920 | -77.91955 | 39 ft | 15 kts | 245° |
| 2026-04-25 13:00 | 18.49847 | -77.92119 | 39 ft | 14 kts | 245° |
| 2026-04-25 13:00 | 18.49805 | -77.92214 | 38 ft | 14 kts | 245° |
| 2026-04-25 13:01 | 18.49765 | -77.92306 | 38 ft | 14 kts | 245° |
| 2026-04-25 13:01 | 18.49753 | -77.92389 | 37 ft | 10 kts | 309° |
| 2026-04-25 13:01 | 18.49809 | -77.92426 | 39 ft | 9 kts | 333° |
| 2026-04-25 13:01 | 18.49867 | -77.92453 | 44 ft | 8 kts | 341° |
| 2026-04-25 13:02 | 18.49885 | -77.92441 | 43 ft | 1 kts | 48° |
| 2026-04-25 13:02 | 18.49892 | -77.92429 | 39 ft | 3 kts | 59° |
| 2026-04-25 13:02 | 18.49895 | -77.92422 | 39 ft | 0 kts | 64° |
| 2026-04-25 13:03 | 18.49905 | -77.92399 | 39 ft | 17 kts | 65° |
| 2026-04-25 13:03 | 18.50040 | -77.92092 | 41 ft | 75 kts | 65° |
| 2026-04-25 13:03 | 18.50330 | -77.91424 | 37 ft | 124 kts | 66° |
| 2026-04-25 13:03 | 18.50891 | -77.90125 | 299 ft | 153 kts | 67° |
| 2026-04-25 13:04 | 18.51204 | -77.89441 | 665 ft | 154 kts | 66° |
| 2026-04-25 13:04 | 18.51703 | -77.88428 | 1003 ft | 168 kts | 53° |
| 2026-04-25 13:04 | 18.52754 | -77.87811 | 1173 ft | 187 kts | 2° |
| 2026-04-25 13:04 | 18.54014 | -77.88178 | 1416 ft | 196 kts | 330° |
| 2026-04-25 13:05 | 18.55390 | -77.88519 | 1635 ft | 214 kts | 360° |
| 2026-04-25 13:05 | 18.56952 | -77.88386 | 1830 ft | 238 kts | 8° |
| 2026-04-25 13:05 | 18.58650 | -77.88035 | 2191 ft | 257 kts | 13° |
| 2026-04-25 13:05 | 18.60409 | -77.87563 | 2799 ft | 264 kts | 14° |
| 2026-04-25 13:06 | 18.62200 | -77.87038 | 3461 ft | 269 kts | 15° |
| 2026-04-25 13:06 | 18.64005 | -77.86487 | 4187 ft | 271 kts | 15° |
| 2026-04-25 13:06 | 18.65824 | -77.85923 | 4906 ft | 273 kts | 14° |
| 2026-04-25 13:06 | 18.67652 | -77.85348 | 5575 ft | 276 kts | 15° |
| 2026-04-25 13:07 | 18.69498 | -77.84765 | 6251 ft | 279 kts | 15° |
| 2026-04-25 13:07 | 18.71370 | -77.84170 | 6896 ft | 282 kts | 15° |
| 2026-04-25 13:07 | 18.73262 | -77.83568 | 7535 ft | 285 kts | 14° |
| 2026-04-25 13:07 | 18.75174 | -77.82958 | 8183 ft | 289 kts | 14° |
| 2026-04-25 13:08 | 18.77112 | -77.82340 | 8803 ft | 293 kts | 14° |
| 2026-04-25 13:08 | 18.79048 | -77.81722 | 9432 ft | 296 kts | 14° |
| 2026-04-25 13:08 | 18.81031 | -77.81089 | 10018 ft | 299 kts | 14° |
| 2026-04-25 13:08 | 18.83056 | -77.80443 | 10401 ft | 311 kts | 14° |
| 2026-04-25 13:09 | 18.85175 | -77.79768 | 10653 ft | 325 kts | 15° |
| 2026-04-25 13:09 | 18.87386 | -77.79062 | 10903 ft | 339 kts | 15° |
| 2026-04-25 13:09 | 18.89691 | -77.78326 | 11156 ft | 352 kts | 15° |
| 2026-04-25 13:09 | 18.92080 | -77.77561 | 11387 ft | 365 kts | 15° |
| 2026-04-25 13:10 | 18.94554 | -77.76770 | 11635 ft | 377 kts | 15° |
| 2026-04-25 13:10 | 18.97088 | -77.75958 | 12002 ft | 384 kts | 15° |
| 2026-04-25 13:10 | 18.99660 | -77.75133 | 12461 ft | 388 kts | 15° |
| 2026-04-25 13:10 | 19.02256 | -77.74301 | 12942 ft | 392 kts | 15° |
| 2026-04-25 13:11 | 19.04876 | -77.73461 | 13415 ft | 395 kts | 15° |
| 2026-04-25 13:11 | 19.07520 | -77.72613 | 13868 ft | 399 kts | 15° |
| 2026-04-25 13:11 | 19.10190 | -77.71757 | 14320 ft | 401 kts | 15° |
| 2026-04-25 13:11 | 19.12827 | -77.70911 | 14805 ft | 402 kts | 15° |
| 2026-04-25 13:12 | 19.15508 | -77.70050 | 15291 ft | 403 kts | 15° |
| 2026-04-25 13:12 | 19.18187 | -77.69152 | 15768 ft | 405 kts | 15° |
| 2026-04-25 13:12 | 19.20871 | -77.68224 | 16247 ft | 407 kts | 15° |
| 2026-04-25 13:12 | 19.22691 | -77.67588 | 16573 ft | 408 kts | 15° |
| 2026-04-25 13:13 | 19.26265 | -77.66337 | 17215 ft | 410 kts | 15° |
| 2026-04-25 13:13 | 19.28986 | -77.65389 | 17700 ft | 412 kts | 15° |
| 2026-04-25 13:13 | 19.31721 | -77.64440 | 18165 ft | 414 kts | 14° |
| 2026-04-25 13:13 | 19.34458 | -77.63494 | 18575 ft | 416 kts | 14° |
| 2026-04-25 13:14 | 19.37228 | -77.62540 | 18937 ft | 419 kts | 14° |
| 2026-04-25 13:14 | 19.40013 | -77.61580 | 19285 ft | 423 kts | 14° |
| 2026-04-25 13:14 | 19.42823 | -77.60614 | 19656 ft | 425 kts | 14° |
| 2026-04-25 13:14 | 19.45639 | -77.59615 | 20015 ft | 429 kts | 17° |
| 2026-04-25 13:15 | 19.48349 | -77.58219 | 20379 ft | 438 kts | 28° |
| 2026-04-25 13:15 | 19.50870 | -77.56367 | 20735 ft | 444 kts | 33° |
| 2026-04-25 13:15 | 19.53247 | -77.54321 | 21083 ft | 448 kts | 36° |
| 2026-04-25 13:15 | 19.55599 | -77.52116 | 21422 ft | 452 kts | 38° |
| 2026-04-25 13:16 | 19.57924 | -77.49858 | 21765 ft | 455 kts | 38° |
| 2026-04-25 13:16 | 19.60269 | -77.47564 | 22114 ft | 458 kts | 38° |
| 2026-04-25 13:16 | 19.62627 | -77.45272 | 22454 ft | 460 kts | 38° |
| 2026-04-25 13:16 | 19.65004 | -77.42983 | 22767 ft | 463 kts | 37° |
| 2026-04-25 13:17 | 19.67407 | -77.40687 | 23104 ft | 466 kts | 37° |
| 2026-04-25 13:17 | 19.69828 | -77.38386 | 23423 ft | 469 kts | 37° |
| 2026-04-25 13:17 | 19.72267 | -77.36074 | 23673 ft | 472 kts | 37° |
| 2026-04-25 13:17 | 19.74729 | -77.33740 | 23939 ft | 475 kts | 37° |
| 2026-04-25 13:18 | 19.77199 | -77.31399 | 24211 ft | 477 kts | 37° |
| 2026-04-25 13:18 | 19.79682 | -77.29042 | 24492 ft | 479 kts | 37° |
| 2026-04-25 13:18 | 19.82139 | -77.26709 | 24760 ft | 482 kts | 37° |
| 2026-04-25 13:18 | 19.84643 | -77.24329 | 25038 ft | 484 kts | 37° |
| 2026-04-25 13:19 | 19.87140 | -77.21905 | 25314 ft | 487 kts | 39° |
| 2026-04-25 13:19 | 19.89564 | -77.19370 | 25587 ft | 491 kts | 40° |
| 2026-04-25 13:19 | 19.91957 | -77.16773 | 25847 ft | 493 kts | 41° |
| 2026-04-25 13:19 | 19.93575 | -77.14998 | 26025 ft | 495 kts | 41° |
| 2026-04-25 13:20 | 19.96767 | -77.11510 | 26363 ft | 498 kts | 40° |
| 2026-04-25 13:20 | 19.99198 | -77.08875 | 26618 ft | 500 kts | 40° |
| 2026-04-25 13:20 | 20.01647 | -77.06234 | 26818 ft | 503 kts | 40° |
| 2026-04-25 13:20 | 20.04121 | -77.03585 | 27064 ft | 505 kts | 39° |
| 2026-04-25 13:21 | 20.06586 | -77.00954 | 27338 ft | 506 kts | 39° |
| 2026-04-25 13:21 | 20.09098 | -76.98275 | 27561 ft | 509 kts | 39° |
| 2026-04-25 13:21 | 20.11603 | -76.95604 | 27788 ft | 511 kts | 39° |
| 2026-04-25 13:21 | 20.14117 | -76.92918 | 28033 ft | 513 kts | 39° |
| 2026-04-25 13:22 | 20.16604 | -76.90261 | 28262 ft | 515 kts | 39° |
| 2026-04-25 13:22 | 20.19165 | -76.87520 | 28488 ft | 517 kts | 39° |
| 2026-04-25 13:22 | 20.21675 | -76.84833 | 28711 ft | 518 kts | 39° |
| 2026-04-25 13:23 | 20.26778 | -76.79364 | 29144 ft | 522 kts | 39° |
| 2026-04-25 13:23 | 20.29336 | -76.76620 | 29422 ft | 522 kts | 39° |
| 2026-04-25 13:23 | 20.31894 | -76.73874 | 29725 ft | 522 kts | 39° |
| 2026-04-25 13:23 | 20.34453 | -76.71126 | 30004 ft | 522 kts | 39° |
| 2026-04-25 13:24 | 20.37012 | -76.68377 | 30255 ft | 522 kts | 39° |
| 2026-04-25 13:24 | 20.39572 | -76.65625 | 30490 ft | 522 kts | 39° |
| 2026-04-25 13:24 | 20.42230 | -76.63027 | 30728 ft | 516 kts | 33° |
| 2026-04-25 13:24 | 20.44983 | -76.60562 | 30976 ft | 515 kts | 33° |
| 2026-04-25 13:25 | 20.47746 | -76.58138 | 31222 ft | 514 kts | 32° |
| 2026-04-25 13:25 | 20.50518 | -76.55733 | 31448 ft | 513 kts | 32° |
| 2026-04-25 13:25 | 20.53293 | -76.53338 | 31671 ft | 513 kts | 32° |
| 2026-04-25 13:25 | 20.56036 | -76.50970 | 31908 ft | 512 kts | 32° |
| 2026-04-25 13:26 | 20.58812 | -76.48573 | 32123 ft | 512 kts | 32° |
| 2026-04-25 13:26 | 20.61580 | -76.46176 | 32346 ft | 513 kts | 32° |
| 2026-04-25 13:26 | 20.64350 | -76.43775 | 32539 ft | 513 kts | 32° |
| 2026-04-25 13:26 | 20.67122 | -76.41369 | 32751 ft | 512 kts | 32° |
| 2026-04-25 13:27 | 20.69886 | -76.38967 | 32936 ft | 513 kts | 32° |
| 2026-04-25 13:27 | 20.75440 | -76.34139 | 32966 ft | 513 kts | 32° |
| 2026-04-25 13:28 | 20.80936 | -76.29350 | 32965 ft | 512 kts | 32° |
| 2026-04-25 13:28 | 20.86352 | -76.24363 | 32966 ft | 515 kts | 34° |
| 2026-04-25 13:29 | 20.91709 | -76.19258 | 32964 ft | 515 kts | 34° |
| 2026-04-25 13:29 | 20.97073 | -76.14176 | 32958 ft | 515 kts | 34° |
| 2026-04-25 13:30 | 21.05154 | -76.06581 | 32957 ft | 515 kts | 34° |
| 2026-04-25 13:31 | 21.13244 | -75.98981 | 32958 ft | 515 kts | 34° |
| 2026-04-25 13:31 | 21.18589 | -75.93952 | 32957 ft | 515 kts | 34° |
| 2026-04-25 13:32 | 21.23979 | -75.88874 | 32957 ft | 515 kts | 34° |
| 2026-04-25 13:32 | 21.29360 | -75.83799 | 32955 ft | 514 kts | 34° |
| 2026-04-25 13:33 | 21.34727 | -75.78733 | 32956 ft | 514 kts | 34° |
| 2026-04-25 13:33 | 21.40109 | -75.73649 | 32956 ft | 515 kts | 34° |
| 2026-04-25 13:34 | 21.45485 | -75.68564 | 32957 ft | 515 kts | 34° |
| 2026-04-25 13:34 | 21.50832 | -75.63501 | 32991 ft | 515 kts | 34° |
| 2026-04-25 13:35 | 21.56200 | -75.58411 | 32954 ft | 514 kts | 34° |
| 2026-04-25 13:35 | 21.61565 | -75.53321 | 32955 ft | 514 kts | 34° |
| 2026-04-25 13:36 | 21.66935 | -75.48221 | 32959 ft | 514 kts | 34° |
| 2026-04-25 13:36 | 21.72293 | -75.43128 | 32958 ft | 514 kts | 34° |
| 2026-04-25 13:37 | 21.77657 | -75.38023 | 32957 ft | 515 kts | 35° |
| 2026-04-25 13:37 | 21.83017 | -75.32916 | 32954 ft | 514 kts | 35° |
| 2026-04-25 13:38 | 21.88332 | -75.27846 | 32948 ft | 514 kts | 35° |
| 2026-04-25 13:38 | 21.93686 | -75.22736 | 32954 ft | 514 kts | 35° |
| 2026-04-25 13:39 | 21.99033 | -75.17626 | 32959 ft | 514 kts | 35° |
| 2026-04-25 13:39 | 22.04341 | -75.12439 | 32954 ft | 515 kts | 37° |
| 2026-04-25 13:40 | 22.09553 | -75.07126 | 32994 ft | 514 kts | 34° |
| 2026-04-25 13:40 | 22.15299 | -75.02735 | 32957 ft | 503 kts | 25° |
| 2026-04-25 13:41 | 22.21263 | -74.98767 | 32959 ft | 503 kts | 24° |
| 2026-04-25 13:41 | 22.27225 | -74.94901 | 32963 ft | 503 kts | 24° |
| 2026-04-25 13:42 | 22.33217 | -74.91003 | 32963 ft | 503 kts | 24° |
| 2026-04-25 13:42 | 22.39203 | -74.87087 | 32987 ft | 503 kts | 24° |
| 2026-04-25 13:43 | 22.45189 | -74.83158 | 32961 ft | 502 kts | 24° |
| 2026-04-25 13:43 | 22.51169 | -74.79228 | 32965 ft | 502 kts | 24° |
| 2026-04-25 13:44 | 22.57109 | -74.75322 | 32963 ft | 502 kts | 24° |
| 2026-04-25 13:44 | 22.63081 | -74.71391 | 32963 ft | 502 kts | 24° |
| 2026-04-25 13:45 | 22.69063 | -74.67459 | 33138 ft | 503 kts | 24° |
| 2026-04-25 13:45 | 22.72052 | -74.65490 | 33334 ft | 502 kts | 24° |
| 2026-04-25 13:45 | 22.75033 | -74.63520 | 33569 ft | 501 kts | 24° |
| 2026-04-25 13:45 | 22.78009 | -74.61551 | 33768 ft | 501 kts | 24° |
| 2026-04-25 13:46 | 22.80990 | -74.59579 | 33942 ft | 501 kts | 24° |
| 2026-04-25 13:46 | 22.86956 | -74.55635 | 33967 ft | 502 kts | 24° |
| 2026-04-25 13:47 | 22.92876 | -74.51716 | 33969 ft | 501 kts | 24° |
| 2026-04-25 13:47 | 22.98827 | -74.47775 | 33999 ft | 501 kts | 24° |
| 2026-04-25 13:48 | 23.04779 | -74.43829 | 33978 ft | 501 kts | 24° |
| 2026-04-25 13:48 | 23.10726 | -74.39883 | 33973 ft | 501 kts | 24° |
| 2026-04-25 13:49 | 23.16636 | -74.35956 | 33970 ft | 501 kts | 24° |
| 2026-04-25 13:49 | 23.22592 | -74.31995 | 33973 ft | 502 kts | 24° |
| 2026-04-25 13:50 | 23.28615 | -74.28188 | 33978 ft | 498 kts | 20° |
| 2026-04-25 13:50 | 23.34833 | -74.24879 | 33974 ft | 496 kts | 19° |
| 2026-04-25 13:51 | 23.41029 | -74.21637 | 33977 ft | 497 kts | 19° |
| 2026-04-25 13:51 | 23.47235 | -74.18297 | 33977 ft | 497 kts | 20° |
| 2026-04-25 13:52 | 23.53429 | -74.14906 | 33977 ft | 498 kts | 20° |
| 2026-04-25 13:52 | 23.59610 | -74.11509 | 33979 ft | 497 kts | 20° |
| 2026-04-25 13:53 | 23.65753 | -74.08131 | 33974 ft | 497 kts | 20° |
| 2026-04-25 13:53 | 23.71932 | -74.04732 | 33974 ft | 497 kts | 20° |
| 2026-04-25 13:54 | 23.77065 | -74.01907 | 33977 ft | 497 kts | 20° |
| 2026-04-25 13:54 | 23.83246 | -73.98504 | 33979 ft | 498 kts | 20° |
| 2026-04-25 13:55 | 23.89428 | -73.95086 | 33979 ft | 498 kts | 20° |
| 2026-04-25 13:55 | 23.95583 | -73.91561 | 33979 ft | 500 kts | 22° |
| 2026-04-25 13:56 | 24.01692 | -73.87905 | 33976 ft | 500 kts | 22° |
| 2026-04-25 13:56 | 24.07808 | -73.84251 | 33976 ft | 500 kts | 22° |
| 2026-04-25 13:57 | 24.13921 | -73.80624 | 34014 ft | 500 kts | 22° |
| 2026-04-25 13:57 | 24.20009 | -73.77022 | 33979 ft | 499 kts | 22° |
| 2026-04-25 13:58 | 24.26120 | -73.73402 | 33979 ft | 499 kts | 22° |
| 2026-04-25 13:58 | 24.32237 | -73.69775 | 33980 ft | 499 kts | 22° |
| 2026-04-25 13:59 | 24.38350 | -73.66145 | 33979 ft | 499 kts | 22° |
| 2026-04-25 13:59 | 24.44464 | -73.62511 | 33987 ft | 500 kts | 23° |
| 2026-04-25 14:00 | 24.50582 | -73.58870 | 33980 ft | 499 kts | 23° |
| 2026-04-25 14:00 | 24.56697 | -73.55228 | 33982 ft | 500 kts | 23° |
| 2026-04-25 14:01 | 24.62774 | -73.51607 | 33981 ft | 500 kts | 23° |
| 2026-04-25 14:01 | 24.68890 | -73.47950 | 33978 ft | 500 kts | 23° |
| 2026-04-25 14:02 | 24.74996 | -73.44295 | 33986 ft | 499 kts | 23° |
| 2026-04-25 14:02 | 24.81100 | -73.40638 | 33983 ft | 499 kts | 23° |
| 2026-04-25 14:03 | 24.87202 | -73.36981 | 33986 ft | 499 kts | 23° |
| 2026-04-25 14:03 | 24.93266 | -73.33342 | 33984 ft | 499 kts | 23° |
| 2026-04-25 14:04 | 24.99371 | -73.29674 | 34009 ft | 499 kts | 24° |
| 2026-04-25 14:04 | 25.05482 | -73.25999 | 33988 ft | 500 kts | 24° |
| 2026-04-25 14:05 | 25.11257 | -73.21626 | 33987 ft | 506 kts | 33° |
| 2026-04-25 14:05 | 25.16807 | -73.16836 | 33988 ft | 507 kts | 34° |
| 2026-04-25 14:06 | 25.22310 | -73.11979 | 33988 ft | 507 kts | 34° |
| 2026-04-25 14:06 | 25.27819 | -73.07118 | 34005 ft | 507 kts | 35° |
| 2026-04-25 14:07 | 25.33334 | -73.02263 | 33991 ft | 506 kts | 35° |
| 2026-04-25 14:07 | 25.38842 | -72.97418 | 33994 ft | 506 kts | 35° |
| 2026-04-25 14:08 | 25.44351 | -72.92567 | 33992 ft | 507 kts | 35° |
| 2026-04-25 14:08 | 25.49842 | -72.87726 | 33993 ft | 508 kts | 35° |
| 2026-04-25 14:09 | 25.55369 | -72.82846 | 34001 ft | 508 kts | 36° |
| 2026-04-25 14:09 | 25.60884 | -72.77970 | 33998 ft | 507 kts | 36° |
| 2026-04-25 14:10 | 25.66397 | -72.73090 | 33999 ft | 507 kts | 36° |
| 2026-04-25 14:10 | 25.71914 | -72.68201 | 34001 ft | 507 kts | 36° |
| 2026-04-25 14:11 | 25.77384 | -72.63348 | 34001 ft | 507 kts | 36° |
| 2026-04-25 14:11 | 25.82887 | -72.58460 | 34002 ft | 507 kts | 36° |
| 2026-04-25 14:12 | 25.88401 | -72.53556 | 34001 ft | 508 kts | 36° |
| 2026-04-25 14:12 | 25.93906 | -72.48653 | 34001 ft | 508 kts | 36° |
| 2026-04-25 14:13 | 25.99428 | -72.43729 | 34004 ft | 508 kts | 36° |
| 2026-04-25 14:13 | 26.04938 | -72.38809 | 34004 ft | 508 kts | 36° |
| 2026-04-25 14:14 | 26.10411 | -72.33918 | 34004 ft | 507 kts | 36° |
| 2026-04-25 14:14 | 26.15902 | -72.29003 | 34004 ft | 506 kts | 36° |
| 2026-04-25 14:15 | 26.21394 | -72.24082 | 33996 ft | 507 kts | 36° |
| 2026-04-25 14:15 | 26.26912 | -72.19132 | 34010 ft | 509 kts | 36° |
| 2026-04-25 14:16 | 26.32434 | -72.14172 | 34010 ft | 509 kts | 37° |
| 2026-04-25 14:16 | 26.37915 | -72.09241 | 34006 ft | 509 kts | 36° |
| 2026-04-25 14:17 | 26.43428 | -72.04275 | 34006 ft | 509 kts | 37° |
| 2026-04-25 14:17 | 26.48939 | -71.99306 | 34007 ft | 509 kts | 37° |
| 2026-04-25 14:18 | 26.54448 | -71.94332 | 34012 ft | 509 kts | 37° |
| 2026-04-25 14:18 | 26.59950 | -71.89358 | 34007 ft | 509 kts | 37° |
| 2026-04-25 14:19 | 26.65477 | -71.84356 | 34020 ft | 511 kts | 37° |
| 2026-04-25 14:19 | 26.70969 | -71.79378 | 34013 ft | 512 kts | 37° |
| 2026-04-25 14:20 | 26.76510 | -71.74349 | 34016 ft | 512 kts | 37° |
| 2026-04-25 14:20 | 26.82036 | -71.69327 | 34015 ft | 512 kts | 37° |
| 2026-04-25 14:21 | 26.87558 | -71.64303 | 34016 ft | 511 kts | 37° |
| 2026-04-25 14:21 | 26.93067 | -71.59284 | 34014 ft | 510 kts | 37° |
| 2026-04-25 14:22 | 26.98540 | -71.54291 | 34014 ft | 510 kts | 37° |
| 2026-04-25 14:22 | 27.04063 | -71.49248 | 34022 ft | 513 kts | 37° |
| 2026-04-25 14:23 | 27.09601 | -71.44182 | 34020 ft | 513 kts | 37° |
| 2026-04-25 14:23 | 27.15128 | -71.39120 | 34025 ft | 510 kts | 37° |
| 2026-04-25 14:24 | 27.20603 | -71.34098 | 34016 ft | 507 kts | 37° |
| 2026-04-25 14:24 | 27.26075 | -71.29074 | 34020 ft | 507 kts | 37° |
| 2026-04-25 14:25 | 27.31547 | -71.24043 | 34022 ft | 508 kts | 37° |
| 2026-04-25 14:25 | 27.36976 | -71.19045 | 34029 ft | 508 kts | 37° |
| 2026-04-25 14:26 | 27.42419 | -71.14027 | 34017 ft | 503 kts | 37° |
| 2026-04-25 14:26 | 27.47820 | -71.09041 | 34025 ft | 502 kts | 37° |
| 2026-04-25 14:27 | 27.53214 | -71.04055 | 34022 ft | 502 kts | 38° |
| 2026-04-25 14:27 | 27.58418 | -70.98795 | 34027 ft | 503 kts | 42° |
| 2026-04-25 14:28 | 27.63486 | -70.93360 | 34019 ft | 502 kts | 42° |
| 2026-04-25 14:28 | 27.68548 | -70.87979 | 34013 ft | 498 kts | 42° |
| 2026-04-25 14:29 | 27.73605 | -70.82670 | 34023 ft | 500 kts | 41° |
| 2026-04-25 14:29 | 27.78714 | -70.77324 | 34033 ft | 500 kts | 41° |
| 2026-04-25 14:30 | 27.83819 | -70.71977 | 34033 ft | 500 kts | 41° |
| 2026-04-25 14:30 | 27.91465 | -70.63948 | 34028 ft | 498 kts | 41° |
| 2026-04-25 14:31 | 27.96544 | -70.58605 | 34022 ft | 498 kts | 41° |
| 2026-04-25 14:31 | 28.01613 | -70.53265 | 34019 ft | 498 kts | 41° |
| 2026-04-25 14:32 | 28.06698 | -70.47903 | 34041 ft | 500 kts | 41° |
| 2026-04-25 14:32 | 28.11751 | -70.42565 | 34032 ft | 500 kts | 41° |
| 2026-04-25 14:33 | 28.16829 | -70.37194 | 34033 ft | 499 kts | 41° |
| 2026-04-25 14:33 | 28.21901 | -70.31821 | 34035 ft | 499 kts | 41° |
| 2026-04-25 14:34 | 28.26982 | -70.26433 | 34042 ft | 499 kts | 41° |
| 2026-04-25 14:34 | 28.32049 | -70.21052 | 34038 ft | 499 kts | 41° |
| 2026-04-25 14:35 | 28.37085 | -70.15696 | 34045 ft | 500 kts | 41° |
| 2026-04-25 14:35 | 28.42184 | -70.10266 | 34043 ft | 501 kts | 41° |
| 2026-04-25 14:36 | 28.47267 | -70.04846 | 34041 ft | 501 kts | 41° |
| 2026-04-25 14:36 | 28.52351 | -69.99415 | 34041 ft | 501 kts | 41° |
| 2026-04-25 14:37 | 28.57434 | -69.93980 | 34045 ft | 501 kts | 41° |
| 2026-04-25 14:37 | 28.62480 | -69.88576 | 34046 ft | 499 kts | 41° |
| 2026-04-25 14:38 | 28.67542 | -69.83147 | 34042 ft | 500 kts | 41° |
| 2026-04-25 14:38 | 28.72618 | -69.77698 | 34049 ft | 502 kts | 41° |
| 2026-04-25 14:39 | 28.77704 | -69.72229 | 34046 ft | 502 kts | 41° |
| 2026-04-25 14:39 | 28.81926 | -69.67682 | 34062 ft | 502 kts | 41° |
| 2026-04-25 14:40 | 28.86993 | -69.62218 | 34048 ft | 499 kts | 41° |
| 2026-04-25 14:40 | 28.92034 | -69.56775 | 34045 ft | 498 kts | 41° |
| 2026-04-25 14:41 | 28.97038 | -69.51366 | 34046 ft | 499 kts | 41° |
| 2026-04-25 14:41 | 29.02103 | -69.45884 | 34051 ft | 503 kts | 41° |
| 2026-04-25 14:42 | 29.06325 | -69.41307 | 34052 ft | 503 kts | 41° |
| 2026-04-25 14:42 | 29.12257 | -69.34865 | 34051 ft | 503 kts | 41° |
| 2026-04-25 14:43 | 29.17338 | -69.29340 | 34053 ft | 503 kts | 41° |
| 2026-04-25 14:43 | 29.22409 | -69.23818 | 34052 ft | 503 kts | 41° |
| 2026-04-25 14:44 | 29.27456 | -69.18314 | 34048 ft | 503 kts | 41° |
| 2026-04-25 14:44 | 29.32529 | -69.12774 | 34056 ft | 500 kts | 41° |
| 2026-04-25 14:45 | 29.37532 | -69.07302 | 34056 ft | 499 kts | 41° |
| 2026-04-25 14:45 | 29.42556 | -69.01801 | 34056 ft | 499 kts | 41° |
| 2026-04-25 14:46 | 29.47578 | -68.96293 | 34057 ft | 499 kts | 41° |
| 2026-04-25 14:46 | 29.52593 | -68.90785 | 34065 ft | 498 kts | 42° |
| 2026-04-25 14:47 | 29.56719 | -68.86245 | 34051 ft | 490 kts | 42° |
| 2026-04-25 14:47 | 29.62480 | -68.79903 | 34057 ft | 495 kts | 41° |
| 2026-04-25 14:48 | 29.67468 | -68.74402 | 34053 ft | 497 kts | 42° |
| 2026-04-25 14:48 | 29.72451 | -68.68897 | 34055 ft | 496 kts | 42° |
| 2026-04-25 14:49 | 29.77397 | -68.63424 | 34062 ft | 489 kts | 43° |
| 2026-04-25 14:49 | 29.82231 | -68.58066 | 34054 ft | 479 kts | 43° |
| 2026-04-25 14:50 | 29.87027 | -68.52746 | 34050 ft | 479 kts | 43° |
| 2026-04-25 14:50 | 29.91861 | -68.47377 | 34057 ft | 485 kts | 42° |
| 2026-04-25 14:51 | 29.96726 | -68.41968 | 34061 ft | 491 kts | 42° |
| 2026-04-25 14:51 | 30.01594 | -68.36541 | 34055 ft | 480 kts | 43° |
| 2026-04-25 14:52 | 30.06368 | -68.31212 | 34054 ft | 477 kts | 43° |
| 2026-04-25 14:52 | 30.10330 | -68.26787 | 34060 ft | 477 kts | 43° |
| 2026-04-25 14:53 | 30.15903 | -68.20553 | 34060 ft | 477 kts | 43° |
| 2026-04-25 14:53 | 30.20674 | -68.15207 | 34062 ft | 478 kts | 43° |
| 2026-04-25 14:54 | 30.25400 | -68.09903 | 34057 ft | 473 kts | 43° |
| 2026-04-25 14:54 | 30.30121 | -68.04598 | 34049 ft | 472 kts | 43° |
| 2026-04-25 14:55 | 30.34834 | -67.99295 | 34057 ft | 472 kts | 43° |
| 2026-04-25 14:55 | 30.39550 | -67.93981 | 34047 ft | 472 kts | 43° |
| 2026-04-25 14:56 | 30.44261 | -67.88665 | 34047 ft | 475 kts | 43° |
| 2026-04-25 14:56 | 30.48981 | -67.83332 | 34045 ft | 477 kts | 43° |
| 2026-04-25 14:57 | 30.53738 | -67.77948 | 34050 ft | 477 kts | 43° |
| 2026-04-25 14:57 | 30.58498 | -67.72552 | 34051 ft | 477 kts | 43° |
| 2026-04-25 14:58 | 30.63247 | -67.67162 | 34048 ft | 477 kts | 43° |
| 2026-04-25 14:58 | 30.67990 | -67.61805 | 34046 ft | 480 kts | 40° |
| 2026-04-25 14:59 | 30.73249 | -67.57049 | 34048 ft | 479 kts | 34° |
| 2026-04-25 14:59 | 30.78639 | -67.52504 | 34044 ft | 478 kts | 34° |
| 2026-04-25 15:00 | 30.84040 | -67.48000 | 34063 ft | 477 kts | 34° |
| 2026-04-25 15:00 | 30.89442 | -67.43483 | 34048 ft | 478 kts | 34° |
| 2026-04-25 15:01 | 30.94836 | -67.38954 | 34045 ft | 478 kts | 34° |
| 2026-04-25 15:01 | 31.00230 | -67.34414 | 34042 ft | 478 kts | 34° |
| 2026-04-25 15:02 | 31.05628 | -67.29864 | 34043 ft | 478 kts | 34° |
| 2026-04-25 15:02 | 31.10987 | -67.25341 | 34039 ft | 478 kts | 34° |
| 2026-04-25 15:03 | 31.16368 | -67.20793 | 34039 ft | 477 kts | 34° |
| 2026-04-25 15:03 | 31.21754 | -67.16235 | 34037 ft | 478 kts | 34° |
| 2026-04-25 15:04 | 31.27134 | -67.11674 | 34034 ft | 478 kts | 34° |
| 2026-04-25 15:04 | 31.32520 | -67.07103 | 34034 ft | 478 kts | 34° |
| 2026-04-25 15:05 | 31.37862 | -67.02562 | 34034 ft | 478 kts | 34° |
| 2026-04-25 15:06 | 31.45929 | -66.95692 | 34033 ft | 478 kts | 34° |
| 2026-04-25 15:06 | 31.51319 | -66.91094 | 34042 ft | 478 kts | 34° |
| 2026-04-25 15:07 | 31.56694 | -66.86501 | 34031 ft | 478 kts | 34° |
| 2026-04-25 15:07 | 31.62065 | -66.81907 | 34031 ft | 478 kts | 34° |
| 2026-04-25 15:08 | 31.67404 | -66.77330 | 34030 ft | 478 kts | 34° |
| 2026-04-25 15:08 | 31.72780 | -66.72718 | 34029 ft | 478 kts | 34° |
| 2026-04-25 15:09 | 31.78151 | -66.68103 | 34025 ft | 479 kts | 34° |
| 2026-04-25 15:09 | 31.86226 | -66.61151 | 34025 ft | 479 kts | 34° |
| 2026-04-25 15:10 | 31.91612 | -66.56506 | 34027 ft | 480 kts | 34° |
| 2026-04-25 15:11 | 31.99636 | -66.49573 | 34024 ft | 479 kts | 34° |
| 2026-04-25 15:11 | 32.05019 | -66.44910 | 34020 ft | 480 kts | 34° |
| 2026-04-25 15:12 | 32.13086 | -66.37914 | 34019 ft | 480 kts | 34° |
| 2026-04-25 15:12 | 32.16690 | -66.34782 | 34021 ft | 480 kts | 34° |
| 2026-04-25 15:13 | 32.26548 | -66.26202 | 34019 ft | 480 kts | 34° |
| 2026-04-25 15:14 | 32.31887 | -66.21545 | 34020 ft | 480 kts | 34° |
| 2026-04-25 15:14 | 32.37263 | -66.16848 | 34020 ft | 480 kts | 34° |
| 2026-04-25 15:15 | 32.42637 | -66.12145 | 34019 ft | 480 kts | 34° |
| 2026-04-25 15:15 | 32.48010 | -66.07438 | 34020 ft | 480 kts | 34° |
| 2026-04-25 15:16 | 32.53387 | -66.02720 | 34021 ft | 480 kts | 34° |
| 2026-04-25 15:16 | 32.61438 | -65.95640 | 34025 ft | 480 kts | 33° |
| 2026-04-25 15:17 | 32.69465 | -65.88566 | 34021 ft | 481 kts | 33° |
| 2026-04-25 15:18 | 32.74850 | -65.83810 | 34020 ft | 481 kts | 33° |
| 2026-04-25 15:18 | 32.82900 | -65.76690 | 34022 ft | 482 kts | 33° |
| 2026-04-25 15:19 | 32.86503 | -65.73498 | 34021 ft | 483 kts | 33° |
| 2026-04-25 15:19 | 32.93668 | -65.67139 | 34020 ft | 483 kts | 33° |
| 2026-04-25 15:20 | 32.99050 | -65.62353 | 34023 ft | 483 kts | 33° |
| 2026-04-25 15:20 | 33.04400 | -65.57581 | 34023 ft | 483 kts | 32° |
| 2026-04-25 15:21 | 33.09772 | -65.52779 | 34022 ft | 483 kts | 32° |
| 2026-04-25 15:21 | 33.15153 | -65.47969 | 34022 ft | 483 kts | 32° |
| 2026-04-25 15:22 | 33.20521 | -65.43168 | 34024 ft | 483 kts | 32° |
| 2026-04-25 15:22 | 33.25897 | -65.38349 | 34026 ft | 482 kts | 32° |
| 2026-04-25 15:23 | 33.31260 | -65.33534 | 34023 ft | 483 kts | 32° |
| 2026-04-25 15:23 | 33.36630 | -65.28716 | 34033 ft | 483 kts | 32° |
| 2026-04-25 15:24 | 33.42001 | -65.23891 | 34020 ft | 483 kts | 32° |
| 2026-04-25 15:24 | 33.45609 | -65.20642 | 34018 ft | 484 kts | 32° |
| 2026-04-25 15:25 | 33.52759 | -65.14186 | 34020 ft | 484 kts | 32° |
| 2026-04-25 15:25 | 33.58135 | -65.09321 | 34014 ft | 483 kts | 32° |
| 2026-04-25 15:26 | 33.63479 | -65.04479 | 34007 ft | 484 kts | 32° |
| 2026-04-25 15:26 | 33.68854 | -64.99596 | 34008 ft | 484 kts | 32° |
| 2026-04-25 15:27 | 33.74220 | -64.94706 | 34017 ft | 485 kts | 32° |
| 2026-04-25 15:28 | 33.82287 | -64.87354 | 34043 ft | 485 kts | 31° |
| 2026-04-25 15:28 | 33.86754 | -64.83284 | 34017 ft | 484 kts | 31° |
| 2026-04-25 15:29 | 33.92108 | -64.78387 | 34018 ft | 483 kts | 31° |
| 2026-04-25 15:29 | 33.98337 | -64.72693 | 34013 ft | 483 kts | 31° |
| 2026-04-25 15:30 | 34.01918 | -64.69416 | 34011 ft | 483 kts | 31° |
| 2026-04-25 15:30 | 34.08135 | -64.63710 | 34011 ft | 482 kts | 30° |
| 2026-04-25 15:31 | 34.13469 | -64.58804 | 34008 ft | 481 kts | 30° |
| 2026-04-25 15:31 | 34.18804 | -64.53889 | 34008 ft | 482 kts | 30° |
| 2026-04-25 15:32 | 34.24127 | -64.48976 | 34023 ft | 481 kts | 30° |
| 2026-04-25 15:32 | 34.29431 | -64.44070 | 33999 ft | 479 kts | 30° |
| 2026-04-25 15:33 | 34.37368 | -64.36719 | 34004 ft | 479 kts | 30° |
| 2026-04-25 15:33 | 34.42651 | -64.31811 | 34025 ft | 480 kts | 29° |
| 2026-04-25 15:34 | 34.47911 | -64.26910 | 34005 ft | 479 kts | 29° |
| 2026-04-25 15:34 | 34.52334 | -64.22786 | 34004 ft | 479 kts | 29° |
| 2026-04-25 15:35 | 34.61120 | -64.14588 | 34027 ft | 479 kts | 29° |
| 2026-04-25 15:36 | 34.69047 | -64.07174 | 33999 ft | 479 kts | 29° |
| 2026-04-25 15:36 | 34.74326 | -64.02230 | 33999 ft | 480 kts | 29° |
| 2026-04-25 15:37 | 34.79618 | -63.97276 | 34048 ft | 481 kts | 29° |
| 2026-04-25 15:37 | 34.84929 | -63.92287 | 33995 ft | 481 kts | 28° |
| 2026-04-25 15:38 | 34.90191 | -63.87329 | 33993 ft | 481 kts | 28° |
| 2026-04-25 15:38 | 34.95485 | -63.82333 | 33988 ft | 481 kts | 29° |
| 2026-04-25 15:39 | 35.00781 | -63.77327 | 33999 ft | 481 kts | 28° |
| 2026-04-25 15:39 | 35.06061 | -63.72326 | 33983 ft | 480 kts | 28° |
| 2026-04-25 15:40 | 35.10482 | -63.68134 | 33982 ft | 480 kts | 28° |
| 2026-04-25 15:40 | 35.16616 | -63.62310 | 33986 ft | 481 kts | 28° |
| 2026-04-25 15:41 | 35.21892 | -63.57283 | 33978 ft | 479 kts | 27° |
| 2026-04-25 15:41 | 35.27135 | -63.52284 | 33974 ft | 478 kts | 27° |
| 2026-04-25 15:42 | 35.32386 | -63.47274 | 33971 ft | 478 kts | 27° |
| 2026-04-25 15:42 | 35.37626 | -63.42263 | 33911 ft | 476 kts | 27° |
| 2026-04-25 15:43 | 35.40199 | -63.39794 | 33407 ft | 474 kts | 27° |
| 2026-04-25 15:43 | 35.42797 | -63.37302 | 33027 ft | 475 kts | 27° |
| 2026-04-25 15:43 | 35.45421 | -63.34793 | 32770 ft | 481 kts | 27° |
| 2026-04-25 15:43 | 35.48066 | -63.32264 | 32512 ft | 483 kts | 27° |
| 2026-04-25 15:44 | 35.50724 | -63.29713 | 32305 ft | 484 kts | 27° |
| 2026-04-25 15:44 | 35.53378 | -63.27160 | 32076 ft | 485 kts | 27° |
| 2026-04-25 15:44 | 35.56039 | -63.24594 | 31928 ft | 485 kts | 26° |
| 2026-04-25 15:44 | 35.58694 | -63.22033 | 31727 ft | 485 kts | 26° |
| 2026-04-25 15:45 | 35.61350 | -63.19468 | 31514 ft | 486 kts | 26° |
| 2026-04-25 15:45 | 35.64017 | -63.16894 | 31330 ft | 487 kts | 26° |
| 2026-04-25 15:45 | 35.66680 | -63.14322 | 31131 ft | 487 kts | 26° |
| 2026-04-25 15:45 | 35.68448 | -63.12613 | 31000 ft | 488 kts | 26° |
| 2026-04-25 15:46 | 35.72027 | -63.09155 | 30737 ft | 491 kts | 26° |
| 2026-04-25 15:46 | 35.74684 | -63.06584 | 30614 ft | 493 kts | 26° |
| 2026-04-25 15:46 | 35.77381 | -63.03970 | 30424 ft | 494 kts | 26° |
| 2026-04-25 15:46 | 35.80113 | -63.01317 | 30227 ft | 494 kts | 26° |
| 2026-04-25 15:47 | 35.82776 | -62.98729 | 30038 ft | 494 kts | 26° |
| 2026-04-25 15:47 | 35.85478 | -62.96102 | 29815 ft | 495 kts | 26° |
| 2026-04-25 15:47 | 35.88181 | -62.93471 | 29590 ft | 495 kts | 26° |
| 2026-04-25 15:47 | 35.90892 | -62.90832 | 29421 ft | 495 kts | 26° |
| 2026-04-25 15:48 | 35.93590 | -62.88200 | 29193 ft | 493 kts | 26° |
| 2026-04-25 15:48 | 35.96275 | -62.85576 | 29000 ft | 491 kts | 26° |
| 2026-04-25 15:48 | 36.01621 | -62.80351 | 28954 ft | 490 kts | 26° |
| 2026-04-25 15:49 | 36.07016 | -62.75089 | 28938 ft | 497 kts | 26° |
| 2026-04-25 15:49 | 36.12472 | -62.69749 | 28941 ft | 501 kts | 26° |
| 2026-04-25 15:50 | 36.17942 | -62.64370 | 28935 ft | 503 kts | 27° |
| 2026-04-25 15:50 | 36.23395 | -62.58991 | 28936 ft | 503 kts | 27° |
| 2026-04-25 15:51 | 36.27951 | -62.54494 | 28978 ft | 504 kts | 27° |
| 2026-04-25 15:51 | 36.34362 | -62.48168 | 28923 ft | 505 kts | 27° |
| 2026-04-25 15:52 | 36.39847 | -62.42754 | 28929 ft | 507 kts | 27° |
| 2026-04-25 15:52 | 36.45365 | -62.37284 | 28944 ft | 507 kts | 27° |
| 2026-04-25 15:53 | 36.50867 | -62.31815 | 28923 ft | 505 kts | 27° |
| 2026-04-25 15:53 | 36.56357 | -62.26351 | 28919 ft | 505 kts | 27° |
| 2026-04-25 15:54 | 36.61843 | -62.20886 | 28987 ft | 506 kts | 27° |
| 2026-04-25 15:54 | 36.67339 | -62.15361 | 28906 ft | 509 kts | 29° |
| 2026-04-25 15:55 | 36.69958 | -62.12665 | 28907 ft | 510 kts | 29° |
| 2026-04-25 15:55 | 36.74946 | -62.07566 | 28911 ft | 509 kts | 26° |
| 2026-04-25 15:56 | 36.80512 | -62.02108 | 28933 ft | 509 kts | 26° |
| 2026-04-25 15:56 | 36.86058 | -61.96613 | 28897 ft | 507 kts | 27° |
| 2026-04-25 15:57 | 36.91558 | -61.91096 | 28894 ft | 507 kts | 27° |
| 2026-04-25 15:57 | 36.97091 | -61.85523 | 28945 ft | 513 kts | 28° |
| 2026-04-25 15:58 | 37.02642 | -61.79906 | 28891 ft | 512 kts | 28° |
| 2026-04-25 15:58 | 37.08136 | -61.74332 | 28891 ft | 511 kts | 28° |
| 2026-04-25 15:59 | 37.13677 | -61.68711 | 28883 ft | 515 kts | 28° |
| 2026-04-25 15:59 | 37.19266 | -61.63036 | 28883 ft | 518 kts | 28° |
| 2026-04-25 16:00 | 37.23007 | -61.59225 | 28886 ft | 518 kts | 28° |
| 2026-04-25 16:00 | 37.30457 | -61.51616 | 28921 ft | 518 kts | 29° |
| 2026-04-25 16:01 | 37.36035 | -61.45907 | 28878 ft | 515 kts | 29° |
| 2026-04-25 16:01 | 37.41586 | -61.40218 | 28875 ft | 515 kts | 29° |
| 2026-04-25 16:02 | 37.47137 | -61.34521 | 28931 ft | 515 kts | 30° |
| 2026-04-25 16:02 | 37.52678 | -61.28819 | 28870 ft | 514 kts | 30° |
| 2026-04-25 16:03 | 37.58224 | -61.23104 | 28870 ft | 516 kts | 30° |
| 2026-04-25 16:03 | 37.63742 | -61.17406 | 28936 ft | 516 kts | 30° |
| 2026-04-25 16:04 | 37.69266 | -61.11681 | 28865 ft | 511 kts | 31° |
| 2026-04-25 16:04 | 37.74749 | -61.05994 | 28861 ft | 510 kts | 31° |
| 2026-04-25 16:05 | 37.80242 | -61.00292 | 28907 ft | 513 kts | 31° |
| 2026-04-25 16:06 | 37.88512 | -60.91679 | 28857 ft | 511 kts | 31° |
| 2026-04-25 16:06 | 37.93996 | -60.85950 | 28854 ft | 511 kts | 31° |
| 2026-04-25 16:07 | 37.99481 | -60.80210 | 28856 ft | 509 kts | 32° |
| 2026-04-25 16:07 | 38.04918 | -60.74505 | 28852 ft | 506 kts | 32° |
| 2026-04-25 16:08 | 38.10356 | -60.68800 | 28849 ft | 513 kts | 32° |
| 2026-04-25 16:08 | 38.15848 | -60.63023 | 28956 ft | 508 kts | 33° |
| 2026-04-25 16:09 | 38.21274 | -60.57312 | 29033 ft | 505 kts | 33° |
| 2026-04-25 16:09 | 38.26642 | -60.51648 | 28943 ft | 504 kts | 33° |
| 2026-04-25 16:10 | 38.32036 | -60.45934 | 28948 ft | 503 kts | 33° |
| 2026-04-25 16:10 | 38.37406 | -60.40227 | 28937 ft | 504 kts | 33° |
| 2026-04-25 16:11 | 38.42732 | -60.34372 | 28943 ft | 510 kts | 39° |
| 2026-04-25 16:11 | 38.46898 | -60.26939 | 28927 ft | 523 kts | 60° |
| 2026-04-25 16:11 | 38.48163 | -60.22563 | 28916 ft | 529 kts | 71° |
| 2026-04-25 16:12 | 38.49072 | -60.18006 | 28929 ft | 530 kts | 71° |
| 2026-04-25 16:12 | 38.51682 | -60.09293 | 28934 ft | 524 kts | 60° |
| 2026-04-25 16:13 | 38.54858 | -60.00971 | 28947 ft | 524 kts | 58° |
| 2026-04-25 16:13 | 38.58175 | -59.92702 | 28918 ft | 521 kts | 58° |
| 2026-04-25 16:14 | 38.61484 | -59.84489 | 28919 ft | 521 kts | 58° |
| 2026-04-25 16:14 | 38.64249 | -59.77588 | 28912 ft | 524 kts | 58° |
| 2026-04-25 16:15 | 38.67562 | -59.69265 | 28910 ft | 525 kts | 58° |
| 2026-04-25 16:15 | 38.70866 | -59.60928 | 28910 ft | 525 kts | 58° |
| 2026-04-25 16:16 | 38.74179 | -59.52555 | 28909 ft | 531 kts | 59° |
| 2026-04-25 16:16 | 38.77524 | -59.44077 | 28901 ft | 533 kts | 59° |
| 2026-04-25 16:17 | 38.80847 | -59.35620 | 28906 ft | 526 kts | 59° |
| 2026-04-25 16:17 | 38.84128 | -59.27248 | 28905 ft | 527 kts | 59° |
| 2026-04-25 16:18 | 38.87450 | -59.18770 | 28893 ft | 534 kts | 59° |
| 2026-04-25 16:18 | 38.90758 | -59.10289 | 28906 ft | 534 kts | 60° |
| 2026-04-25 16:19 | 38.94039 | -59.01840 | 28875 ft | 526 kts | 60° |
| 2026-04-25 16:19 | 38.97345 | -58.93329 | 28890 ft | 540 kts | 60° |
| 2026-04-25 16:20 | 39.02420 | -58.80207 | 28890 ft | 545 kts | 61° |
| 2026-04-25 16:21 | 39.07427 | -58.67185 | 28887 ft | 540 kts | 61° |
| 2026-04-25 16:21 | 39.10747 | -58.58514 | 28885 ft | 540 kts | 61° |
| 2026-04-25 16:22 | 39.14056 | -58.49843 | 28879 ft | 536 kts | 61° |
| 2026-04-25 16:22 | 39.17307 | -58.41305 | 28883 ft | 534 kts | 61° |
| 2026-04-25 16:23 | 39.20591 | -58.32673 | 28882 ft | 537 kts | 61° |
| 2026-04-25 16:23 | 39.23874 | -58.24014 | 28878 ft | 536 kts | 61° |
| 2026-04-25 16:24 | 39.27120 | -58.15424 | 28881 ft | 532 kts | 62° |
| 2026-04-25 16:24 | 39.30385 | -58.06768 | 28871 ft | 538 kts | 62° |
| 2026-04-25 16:25 | 39.33658 | -57.98060 | 28864 ft | 538 kts | 62° |
| 2026-04-25 16:25 | 39.36881 | -57.89455 | 28863 ft | 532 kts | 62° |
| 2026-04-25 16:26 | 39.40112 | -57.80809 | 28859 ft | 536 kts | 62° |
| 2026-04-25 16:26 | 39.43352 | -57.72116 | 28863 ft | 536 kts | 62° |
| 2026-04-25 16:27 | 39.46583 | -57.63432 | 28849 ft | 532 kts | 62° |
| 2026-04-25 16:27 | 39.49790 | -57.54789 | 28850 ft | 534 kts | 62° |
| 2026-04-25 16:28 | 39.53004 | -57.46099 | 28853 ft | 535 kts | 62° |
| 2026-04-25 16:28 | 39.56207 | -57.37401 | 28830 ft | 533 kts | 62° |
| 2026-04-25 16:29 | 39.59385 | -57.28744 | 28844 ft | 534 kts | 63° |
| 2026-04-25 16:29 | 39.62579 | -57.20019 | 28837 ft | 535 kts | 63° |
| 2026-04-25 16:30 | 39.65762 | -57.11299 | 28852 ft | 534 kts | 63° |
| 2026-04-25 16:30 | 39.68908 | -57.02650 | 28834 ft | 534 kts | 63° |
| 2026-04-25 16:31 | 39.72077 | -56.93919 | 28830 ft | 535 kts | 63° |
| 2026-04-25 16:31 | 39.75243 | -56.85167 | 28822 ft | 535 kts | 63° |
| 2026-04-25 16:32 | 39.78405 | -56.76401 | 28824 ft | 538 kts | 63° |
| 2026-04-25 16:32 | 39.81583 | -56.67563 | 28824 ft | 539 kts | 63° |
| 2026-04-25 16:33 | 39.84757 | -56.58709 | 28832 ft | 539 kts | 63° |
| 2026-04-25 16:33 | 39.86319 | -56.54337 | 29331 ft | 526 kts | 63° |
| 2026-04-25 16:33 | 39.87832 | -56.50102 | 29870 ft | 521 kts | 63° |
| 2026-04-25 16:33 | 39.89391 | -56.45750 | 29423 ft | 532 kts | 63° |
| 2026-04-25 16:34 | 39.90938 | -56.41436 | 29340 ft | 536 kts | 63° |
| 2026-04-25 16:34 | 39.92510 | -56.37037 | 29196 ft | 532 kts | 63° |
| 2026-04-25 16:34 | 39.94051 | -56.32682 | 29021 ft | 527 kts | 63° |
| 2026-04-25 16:34 | 39.95576 | -56.28357 | 28834 ft | 524 kts | 63° |
| 2026-04-25 16:35 | 39.97092 | -56.24052 | 28802 ft | 521 kts | 63° |
| 2026-04-25 16:35 | 40.00109 | -56.15492 | 28805 ft | 519 kts | 63° |
| 2026-04-25 16:36 | 40.03102 | -56.06991 | 28804 ft | 519 kts | 63° |
| 2026-04-25 16:36 | 40.06107 | -55.98435 | 28803 ft | 518 kts | 64° |
| 2026-04-25 16:37 | 40.09102 | -55.89879 | 28799 ft | 518 kts | 64° |
| 2026-04-25 16:37 | 40.12108 | -55.81266 | 28795 ft | 518 kts | 64° |
| 2026-04-25 16:38 | 40.15093 | -55.72691 | 28805 ft | 528 kts | 64° |
| 2026-04-25 16:38 | 40.18126 | -55.63944 | 28791 ft | 526 kts | 64° |
| 2026-04-25 16:39 | 40.21139 | -55.55231 | 28787 ft | 525 kts | 64° |
| 2026-04-25 16:39 | 40.24144 | -55.46514 | 28789 ft | 525 kts | 64° |
| 2026-04-25 16:40 | 40.27142 | -55.37792 | 28789 ft | 524 kts | 64° |
| 2026-04-25 16:40 | 40.30122 | -55.29094 | 28783 ft | 523 kts | 64° |
| 2026-04-25 16:41 | 40.33078 | -55.20443 | 28783 ft | 523 kts | 64° |
| 2026-04-25 16:41 | 40.37524 | -55.07377 | 28777 ft | 522 kts | 64° |
| 2026-04-25 16:42 | 40.40475 | -54.98671 | 28777 ft | 522 kts | 64° |
| 2026-04-25 16:42 | 40.43422 | -54.89951 | 28778 ft | 522 kts | 64° |
| 2026-04-25 16:43 | 40.46362 | -54.81225 | 28778 ft | 521 kts | 64° |
| 2026-04-25 16:43 | 40.49289 | -54.72510 | 28774 ft | 521 kts | 64° |
| 2026-04-25 16:44 | 40.52190 | -54.63844 | 28772 ft | 521 kts | 64° |
| 2026-04-25 16:44 | 40.55101 | -54.55124 | 28760 ft | 521 kts | 64° |
| 2026-04-25 16:45 | 40.58005 | -54.46397 | 28758 ft | 520 kts | 65° |
| 2026-04-25 16:45 | 40.60900 | -54.37669 | 28752 ft | 520 kts | 65° |
| 2026-04-25 16:46 | 40.63792 | -54.28923 | 28755 ft | 520 kts | 65° |
| 2026-04-25 16:46 | 40.65727 | -54.23056 | 28754 ft | 525 kts | 65° |
| 2026-04-25 16:47 | 40.69592 | -54.11299 | 28749 ft | 527 kts | 65° |
| 2026-04-25 16:47 | 40.72500 | -54.02421 | 28751 ft | 527 kts | 65° |
| 2026-04-25 16:48 | 40.75396 | -53.93549 | 28738 ft | 527 kts | 65° |
| 2026-04-25 16:48 | 40.78290 | -53.84655 | 28738 ft | 527 kts | 65° |
| 2026-04-25 16:49 | 40.81173 | -53.75767 | 28743 ft | 527 kts | 65° |
| 2026-04-25 16:49 | 40.84050 | -53.66867 | 28746 ft | 527 kts | 65° |
| 2026-04-25 16:50 | 40.86922 | -53.57956 | 28738 ft | 527 kts | 65° |
| 2026-04-25 16:50 | 40.89785 | -53.49041 | 28718 ft | 527 kts | 65° |
| 2026-04-25 16:51 | 40.92670 | -53.40034 | 28734 ft | 535 kts | 65° |
| 2026-04-25 16:51 | 40.94589 | -53.34024 | 28725 ft | 536 kts | 65° |
| 2026-04-25 16:52 | 40.98458 | -53.21865 | 28726 ft | 535 kts | 66° |
| 2026-04-25 16:52 | 41.01319 | -53.12837 | 28734 ft | 535 kts | 66° |
| 2026-04-25 16:53 | 41.05627 | -52.99191 | 28713 ft | 535 kts | 66° |
| 2026-04-25 16:54 | 41.08490 | -52.90083 | 28710 ft | 535 kts | 66° |
| 2026-04-25 16:54 | 41.11344 | -52.80971 | 28718 ft | 535 kts | 66° |
| 2026-04-25 16:55 | 41.14188 | -52.71863 | 28695 ft | 534 kts | 66° |
| 2026-04-25 16:55 | 41.17036 | -52.62708 | 28704 ft | 541 kts | 66° |
| 2026-04-25 16:56 | 41.19909 | -52.53444 | 28702 ft | 542 kts | 66° |
| 2026-04-25 16:56 | 41.22754 | -52.44237 | 28700 ft | 543 kts | 66° |
| 2026-04-25 16:57 | 41.25613 | -52.34954 | 28695 ft | 543 kts | 66° |
| 2026-04-25 16:57 | 41.28471 | -52.25639 | 28692 ft | 543 kts | 66° |
| 2026-04-25 16:58 | 41.31315 | -52.16340 | 28693 ft | 543 kts | 67° |
| 2026-04-25 16:58 | 41.34155 | -52.07021 | 28691 ft | 543 kts | 67° |
| 2026-04-25 16:59 | 41.36984 | -51.97704 | 28692 ft | 543 kts | 67° |
| 2026-04-25 16:59 | 41.39792 | -51.88423 | 28683 ft | 543 kts | 67° |
| 2026-04-25 17:00 | 41.42625 | -51.79024 | 28685 ft | 548 kts | 67° |
| 2026-04-25 17:00 | 41.45461 | -51.69585 | 28683 ft | 549 kts | 68° |
| 2026-04-25 17:01 | 41.48300 | -51.60103 | 28697 ft | 552 kts | 68° |
| 2026-04-25 17:01 | 41.50661 | -51.52191 | 28672 ft | 551 kts | 68° |
| 2026-04-25 17:02 | 41.53486 | -51.42691 | 28668 ft | 551 kts | 68° |
| 2026-04-25 17:02 | 41.56305 | -51.33177 | 28671 ft | 550 kts | 68° |
| 2026-04-25 17:03 | 41.59117 | -51.23652 | 28679 ft | 551 kts | 68° |
| 2026-04-25 17:03 | 41.61915 | -51.14136 | 28676 ft | 551 kts | 68° |
| 2026-04-25 17:04 | 41.64713 | -51.04590 | 28673 ft | 552 kts | 69° |
| 2026-04-25 17:04 | 41.67530 | -50.94942 | 28672 ft | 559 kts | 69° |
| 2026-04-25 17:05 | 41.70331 | -50.85313 | 28671 ft | 559 kts | 69° |
| 2026-04-25 17:05 | 41.74543 | -50.70762 | 28672 ft | 559 kts | 69° |
| 2026-04-25 17:06 | 41.77341 | -50.61050 | 28669 ft | 559 kts | 69° |
| 2026-04-25 17:06 | 41.80138 | -50.51309 | 28663 ft | 559 kts | 69° |
| 2026-04-25 17:07 | 41.82926 | -50.41558 | 28664 ft | 559 kts | 69° |
| 2026-04-25 17:07 | 41.85702 | -50.31811 | 28670 ft | 559 kts | 69° |
| 2026-04-25 17:08 | 41.88448 | -50.22134 | 28641 ft | 558 kts | 70° |
| 2026-04-25 17:08 | 41.91219 | -50.12330 | 28666 ft | 564 kts | 70° |
| 2026-04-25 17:09 | 41.93996 | -50.02468 | 28659 ft | 565 kts | 70° |
| 2026-04-25 17:09 | 41.96737 | -49.92573 | 28661 ft | 564 kts | 71° |
| 2026-04-25 17:10 | 41.99229 | -49.82565 | 28656 ft | 563 kts | 73° |
| 2026-04-25 17:10 | 42.01639 | -49.72606 | 28659 ft | 563 kts | 73° |
| 2026-04-25 17:11 | 42.04090 | -49.62595 | 28656 ft | 563 kts | 73° |
| 2026-04-25 17:11 | 42.06556 | -49.52587 | 28656 ft | 563 kts | 73° |
| 2026-04-25 17:12 | 42.09018 | -49.42586 | 28611 ft | 563 kts | 73° |
| 2026-04-25 17:12 | 42.11485 | -49.32507 | 28654 ft | 568 kts | 73° |
| 2026-04-25 17:13 | 42.13541 | -49.24072 | 28652 ft | 569 kts | 73° |
| 2026-04-25 17:13 | 42.16413 | -49.12242 | 28657 ft | 569 kts | 73° |
| 2026-04-25 17:14 | 42.18862 | -49.02099 | 28670 ft | 569 kts | 74° |
| 2026-04-25 17:14 | 42.21300 | -48.91962 | 28651 ft | 568 kts | 74° |
| 2026-04-25 17:15 | 42.23718 | -48.81856 | 28648 ft | 569 kts | 74° |
| 2026-04-25 17:15 | 42.26139 | -48.71698 | 28659 ft | 569 kts | 74° |
| 2026-04-25 17:16 | 42.28553 | -48.61524 | 28647 ft | 568 kts | 75° |
| 2026-04-25 17:16 | 42.30962 | -48.51319 | 28654 ft | 570 kts | 75° |
| 2026-04-25 17:17 | 42.33363 | -48.41109 | 28656 ft | 571 kts | 75° |
| 2026-04-25 17:17 | 42.35763 | -48.30852 | 28662 ft | 572 kts | 75° |
| 2026-04-25 17:18 | 42.38160 | -48.20558 | 28656 ft | 574 kts | 75° |
| 2026-04-25 17:18 | 42.40536 | -48.10314 | 28657 ft | 575 kts | 75° |
| 2026-04-25 17:19 | 42.42916 | -48.00003 | 28674 ft | 574 kts | 75° |
| 2026-04-25 17:19 | 42.45290 | -47.89673 | 28662 ft | 574 kts | 75° |
| 2026-04-25 17:20 | 42.47655 | -47.79330 | 28625 ft | 574 kts | 76° |
| 2026-04-25 17:20 | 42.50020 | -47.68933 | 28657 ft | 579 kts | 76° |
| 2026-04-25 17:21 | 42.52384 | -47.58497 | 28656 ft | 579 kts | 76° |
| 2026-04-25 17:21 | 42.54743 | -47.48040 | 28660 ft | 579 kts | 76° |
| 2026-04-25 17:22 | 42.56696 | -47.39339 | 28656 ft | 579 kts | 76° |
| 2026-04-25 17:22 | 42.59413 | -47.27179 | 28658 ft | 579 kts | 76° |
| 2026-04-25 17:23 | 42.61734 | -47.16732 | 28663 ft | 578 kts | 76° |
| 2026-04-25 17:23 | 42.64045 | -47.06283 | 28663 ft | 578 kts | 77° |
| 2026-04-25 17:24 | 42.66348 | -46.95819 | 28659 ft | 578 kts | 77° |
| 2026-04-25 17:24 | 42.68639 | -46.85359 | 28668 ft | 577 kts | 77° |
| 2026-04-25 17:25 | 42.70920 | -46.74892 | 28668 ft | 577 kts | 77° |
| 2026-04-25 17:25 | 42.73189 | -46.64425 | 28660 ft | 577 kts | 77° |
| 2026-04-25 17:26 | 42.75450 | -46.53949 | 28666 ft | 576 kts | 77° |
| 2026-04-25 17:26 | 42.77699 | -46.43475 | 28672 ft | 576 kts | 77° |
| 2026-04-25 17:27 | 42.79936 | -46.33004 | 28670 ft | 576 kts | 77° |
| 2026-04-25 17:27 | 42.81411 | -46.26071 | 28670 ft | 576 kts | 78° |
| 2026-04-25 17:28 | 42.84384 | -46.12022 | 28671 ft | 580 kts | 78° |
| 2026-04-25 17:28 | 42.86595 | -46.01508 | 28677 ft | 582 kts | 78° |
| 2026-04-25 17:29 | 42.88823 | -45.90878 | 28663 ft | 582 kts | 79° |
| 2026-04-25 17:29 | 42.91040 | -45.80239 | 28681 ft | 582 kts | 79° |
| 2026-04-25 17:30 | 42.93230 | -45.69673 | 28683 ft | 582 kts | 79° |
| 2026-04-25 17:30 | 42.95422 | -45.59040 | 28684 ft | 582 kts | 79° |
| 2026-04-25 17:31 | 42.97604 | -45.48401 | 28684 ft | 582 kts | 79° |
| 2026-04-25 17:31 | 42.99777 | -45.37752 | 28681 ft | 581 kts | 79° |
| 2026-04-25 17:32 | 43.01944 | -45.27066 | 28688 ft | 587 kts | 79° |
| 2026-04-25 17:32 | 43.04119 | -45.16287 | 28690 ft | 588 kts | 79° |
| 2026-04-25 17:33 | 43.06283 | -45.05523 | 28689 ft | 586 kts | 80° |
| 2026-04-25 17:33 | 43.08416 | -44.94823 | 28692 ft | 586 kts | 80° |
| 2026-04-25 17:34 | 43.10552 | -44.84032 | 28694 ft | 586 kts | 80° |
| 2026-04-25 17:34 | 43.12677 | -44.73267 | 28698 ft | 585 kts | 80° |
| 2026-04-25 17:35 | 43.14792 | -44.62501 | 28698 ft | 585 kts | 80° |
| 2026-04-25 17:35 | 43.16882 | -44.51811 | 28634 ft | 584 kts | 81° |
| 2026-04-25 17:36 | 43.18978 | -44.41024 | 28701 ft | 585 kts | 81° |
| 2026-04-25 17:36 | 43.21065 | -44.30261 | 28705 ft | 584 kts | 81° |
| 2026-04-25 17:37 | 43.23143 | -44.19486 | 28704 ft | 584 kts | 81° |
| 2026-04-25 17:37 | 43.25204 | -44.08713 | 28702 ft | 584 kts | 81° |
| 2026-04-25 17:38 | 43.26563 | -44.01568 | 28708 ft | 584 kts | 81° |
| 2026-04-25 17:38 | 43.29291 | -43.87147 | 28714 ft | 584 kts | 81° |
| 2026-04-25 17:39 | 43.31307 | -43.76418 | 28708 ft | 584 kts | 81° |
| 2026-04-25 17:39 | 43.33322 | -43.65641 | 28671 ft | 581 kts | 81° |
| 2026-04-25 17:40 | 43.35323 | -43.54876 | 28722 ft | 581 kts | 81° |
| 2026-04-25 17:40 | 43.37311 | -43.44103 | 28723 ft | 581 kts | 81° |
| 2026-04-25 17:41 | 43.39288 | -43.33337 | 28721 ft | 580 kts | 82° |
| 2026-04-25 17:41 | 43.41257 | -43.22573 | 28722 ft | 579 kts | 82° |
| 2026-04-25 17:42 | 43.43194 | -43.11904 | 28726 ft | 578 kts | 82° |
| 2026-04-25 17:42 | 43.45131 | -43.01159 | 28725 ft | 578 kts | 82° |
| 2026-04-25 17:43 | 43.47052 | -42.90437 | 28727 ft | 576 kts | 82° |
| 2026-04-25 17:43 | 43.48965 | -42.79714 | 28694 ft | 575 kts | 82° |
| 2026-04-25 17:44 | 43.50868 | -42.69015 | 28728 ft | 574 kts | 82° |
| 2026-04-25 17:44 | 43.52755 | -42.58332 | 28725 ft | 573 kts | 82° |
| 2026-04-25 17:45 | 43.53992 | -42.51276 | 28732 ft | 572 kts | 82° |
| 2026-04-25 17:45 | 43.56465 | -42.37079 | 28742 ft | 571 kts | 82° |
| 2026-04-25 17:46 | 43.58313 | -42.26431 | 28724 ft | 571 kts | 82° |
| 2026-04-25 17:46 | 43.60150 | -42.15778 | 28739 ft | 569 kts | 82° |
| 2026-04-25 17:47 | 43.61972 | -42.05140 | 28742 ft | 569 kts | 83° |
| 2026-04-25 17:47 | 43.63476 | -41.96300 | 28738 ft | 569 kts | 83° |
| 2026-04-25 17:48 | 43.66177 | -41.80317 | 28737 ft | 569 kts | 83° |
| 2026-04-25 17:49 | 43.67963 | -41.69657 | 28742 ft | 569 kts | 83° |
| 2026-04-25 17:49 | 43.69732 | -41.58998 | 28742 ft | 569 kts | 83° |
| 2026-04-25 17:50 | 43.71485 | -41.48397 | 28735 ft | 569 kts | 83° |
| 2026-04-25 17:50 | 43.73246 | -41.37719 | 28746 ft | 569 kts | 83° |
| 2026-04-25 17:51 | 43.75005 | -41.27021 | 28747 ft | 569 kts | 83° |
| 2026-04-25 17:51 | 43.76746 | -41.16339 | 28749 ft | 569 kts | 83° |
| 2026-04-25 17:52 | 43.78474 | -41.05656 | 28705 ft | 568 kts | 83° |
| 2026-04-25 17:52 | 43.80192 | -40.94942 | 28755 ft | 573 kts | 83° |
| 2026-04-25 17:53 | 43.81900 | -40.84232 | 28753 ft | 574 kts | 83° |
| 2026-04-25 17:53 | 43.83607 | -40.73428 | 28751 ft | 573 kts | 83° |
| 2026-04-25 17:54 | 43.85300 | -40.62650 | 28758 ft | 573 kts | 83° |
| 2026-04-25 17:54 | 43.86995 | -40.51854 | 28761 ft | 573 kts | 83° |
| 2026-04-25 17:55 | 43.88681 | -40.41048 | 28758 ft | 573 kts | 84° |
| 2026-04-25 17:55 | 43.90350 | -40.30250 | 28761 ft | 573 kts | 84° |
| 2026-04-25 17:56 | 43.92006 | -40.19447 | 28761 ft | 573 kts | 84° |
| 2026-04-25 17:56 | 43.93655 | -40.08608 | 28759 ft | 579 kts | 84° |
| 2026-04-25 17:57 | 43.95427 | -39.97708 | 28767 ft | 587 kts | 77° |
| 2026-04-25 17:57 | 43.97974 | -39.86938 | 28751 ft | 587 kts | 76° |
| 2026-04-25 17:58 | 44.00653 | -39.76231 | 28767 ft | 587 kts | 75° |
| 2026-04-25 17:58 | 44.03353 | -39.65497 | 28769 ft | 587 kts | 75° |
| 2026-04-25 17:59 | 44.06024 | -39.54763 | 28765 ft | 588 kts | 75° |
| 2026-04-25 17:59 | 44.08679 | -39.44002 | 28763 ft | 587 kts | 76° |
| 2026-04-25 18:00 | 44.11300 | -39.33313 | 28763 ft | 587 kts | 76° |
| 2026-04-25 18:00 | 44.13932 | -39.22536 | 28773 ft | 587 kts | 76° |
| 2026-04-25 18:01 | 44.16548 | -39.11771 | 28763 ft | 587 kts | 76° |
| 2026-04-25 18:01 | 44.19162 | -39.00969 | 28761 ft | 587 kts | 76° |
| 2026-04-25 18:02 | 44.21759 | -38.90186 | 28768 ft | 586 kts | 76° |
| 2026-04-25 18:02 | 44.24340 | -38.79411 | 28733 ft | 586 kts | 76° |
| 2026-04-25 18:03 | 44.26905 | -38.68650 | 28762 ft | 588 kts | 76° |
| 2026-04-25 18:03 | 44.29475 | -38.57810 | 28773 ft | 588 kts | 76° |
| 2026-04-25 18:04 | 44.32032 | -38.46981 | 28774 ft | 586 kts | 76° |
| 2026-04-25 18:04 | 44.34572 | -38.36162 | 28775 ft | 586 kts | 76° |
| 2026-04-25 18:05 | 44.37097 | -38.25343 | 28773 ft | 586 kts | 76° |
| 2026-04-25 18:05 | 44.39623 | -38.14514 | 28786 ft | 585 kts | 76° |
| 2026-04-25 18:06 | 44.42138 | -38.03679 | 28787 ft | 585 kts | 76° |
| 2026-04-25 18:06 | 44.44620 | -37.92916 | 28789 ft | 585 kts | 76° |
| 2026-04-25 18:07 | 44.47101 | -37.82091 | 28794 ft | 584 kts | 76° |
| 2026-04-25 18:07 | 44.49570 | -37.71268 | 28799 ft | 583 kts | 76° |
| 2026-04-25 18:08 | 44.52031 | -37.60427 | 28816 ft | 584 kts | 76° |
| 2026-04-25 18:08 | 44.54482 | -37.49575 | 28822 ft | 582 kts | 76° |
| 2026-04-25 18:09 | 44.56913 | -37.38763 | 28823 ft | 582 kts | 76° |
| 2026-04-25 18:09 | 44.59337 | -37.27920 | 28830 ft | 582 kts | 76° |
| 2026-04-25 18:10 | 44.61750 | -37.17074 | 28836 ft | 581 kts | 76° |
| 2026-04-25 18:10 | 44.64145 | -37.06257 | 28849 ft | 580 kts | 76° |
| 2026-04-25 18:11 | 44.66529 | -36.95436 | 28846 ft | 580 kts | 76° |
| 2026-04-25 18:11 | 44.68902 | -36.84605 | 28855 ft | 580 kts | 76° |
| 2026-04-25 18:12 | 44.71262 | -36.73776 | 28859 ft | 580 kts | 76° |
| 2026-04-25 18:12 | 44.73610 | -36.62924 | 28860 ft | 580 kts | 77° |
| 2026-04-25 18:13 | 44.75946 | -36.52067 | 28854 ft | 580 kts | 77° |
| 2026-04-25 18:13 | 44.78252 | -36.41311 | 28872 ft | 577 kts | 76° |
| 2026-04-25 18:14 | 44.81723 | -36.25083 | 28879 ft | 576 kts | 77° |
| 2026-04-25 18:14 | 44.84022 | -36.14245 | 28873 ft | 576 kts | 76° |
| 2026-04-25 18:15 | 44.86307 | -36.03406 | 28890 ft | 577 kts | 76° |
| 2026-04-25 18:15 | 44.88582 | -35.92545 | 28896 ft | 577 kts | 76° |
| 2026-04-25 18:16 | 44.90845 | -35.81686 | 28894 ft | 577 kts | 76° |
| 2026-04-25 18:17 | 44.94227 | -35.65364 | 28906 ft | 577 kts | 76° |
| 2026-04-25 18:17 | 44.96453 | -35.54551 | 28910 ft | 577 kts | 76° |
| 2026-04-25 18:18 | 44.98682 | -35.43655 | 28915 ft | 577 kts | 76° |
| 2026-04-25 18:18 | 45.00895 | -35.32785 | 28915 ft | 574 kts | 76° |
| 2026-04-25 18:19 | 45.03089 | -35.21950 | 28940 ft | 573 kts | 76° |
| 2026-04-25 18:19 | 45.05270 | -35.11115 | 28943 ft | 573 kts | 76° |
| 2026-04-25 18:20 | 45.07429 | -35.00326 | 28947 ft | 572 kts | 76° |
| 2026-04-25 18:20 | 45.09581 | -34.89521 | 28941 ft | 570 kts | 76° |
| 2026-04-25 18:21 | 45.11723 | -34.78707 | 28952 ft | 570 kts | 76° |
| 2026-04-25 18:21 | 45.13855 | -34.67879 | 28944 ft | 570 kts | 76° |
| 2026-04-25 18:22 | 45.15968 | -34.57089 | 28971 ft | 568 kts | 76° |
| 2026-04-25 18:22 | 45.18072 | -34.46286 | 28974 ft | 567 kts | 76° |
| 2026-04-25 18:23 | 45.20159 | -34.35498 | 28971 ft | 567 kts | 76° |
| 2026-04-25 18:23 | 45.22237 | -34.24716 | 28976 ft | 565 kts | 76° |
| 2026-04-25 18:24 | 45.24292 | -34.13993 | 28982 ft | 563 kts | 76° |
| 2026-04-25 18:24 | 45.26338 | -34.03250 | 28991 ft | 563 kts | 76° |
| 2026-04-25 18:25 | 45.28373 | -33.92500 | 28994 ft | 563 kts | 76° |
| 2026-04-25 18:25 | 45.30396 | -33.81759 | 29003 ft | 563 kts | 76° |
| 2026-04-25 18:26 | 45.32396 | -33.71077 | 29006 ft | 563 kts | 76° |
| 2026-04-25 18:26 | 45.34398 | -33.60323 | 29003 ft | 563 kts | 76° |
| 2026-04-25 18:27 | 45.36384 | -33.49592 | 29015 ft | 558 kts | 76° |
| 2026-04-25 18:27 | 45.38347 | -33.38929 | 29024 ft | 557 kts | 76° |
| 2026-04-25 18:28 | 45.40298 | -33.28264 | 29031 ft | 557 kts | 76° |
| 2026-04-25 18:28 | 45.42241 | -33.17581 | 29029 ft | 557 kts | 77° |
| 2026-04-25 18:29 | 45.45136 | -33.01548 | 29039 ft | 557 kts | 77° |
| 2026-04-25 18:30 | 45.48949 | -32.80222 | 29041 ft | 555 kts | 77° |
| 2026-04-25 18:30 | 45.50835 | -32.69575 | 29044 ft | 553 kts | 77° |
| 2026-04-25 18:31 | 45.52701 | -32.58948 | 29063 ft | 553 kts | 77° |
| 2026-04-25 18:31 | 45.54559 | -32.48297 | 29055 ft | 553 kts | 77° |
| 2026-04-25 18:32 | 45.56413 | -32.37628 | 29069 ft | 554 kts | 77° |
| 2026-04-25 18:32 | 45.58248 | -32.27020 | 29068 ft | 554 kts | 77° |
| 2026-04-25 18:33 | 45.60086 | -32.16337 | 29078 ft | 554 kts | 77° |
| 2026-04-25 18:33 | 45.61606 | -32.07447 | 29080 ft | 554 kts | 77° |
| 2026-04-25 18:34 | 45.63426 | -31.96746 | 29090 ft | 554 kts | 77° |
| 2026-04-25 18:34 | 45.65244 | -31.86032 | 29094 ft | 554 kts | 77° |
| 2026-04-25 18:35 | 45.67049 | -31.75318 | 29099 ft | 554 kts | 77° |
| 2026-04-25 18:35 | 45.68841 | -31.64587 | 29099 ft | 555 kts | 77° |
| 2026-04-25 18:36 | 45.70621 | -31.53859 | 29103 ft | 555 kts | 77° |
| 2026-04-25 18:36 | 45.72394 | -31.43102 | 29109 ft | 555 kts | 77° |
| 2026-04-25 18:37 | 45.74144 | -31.32414 | 29112 ft | 555 kts | 77° |
| 2026-04-25 18:37 | 45.75893 | -31.21667 | 29124 ft | 552 kts | 77° |
| 2026-04-25 18:38 | 45.77626 | -31.10955 | 29126 ft | 551 kts | 77° |
| 2026-04-25 18:38 | 45.79345 | -31.00262 | 29133 ft | 550 kts | 77° |
| 2026-04-25 18:39 | 45.81052 | -30.89568 | 29129 ft | 550 kts | 77° |
| 2026-04-25 18:39 | 45.82737 | -30.78941 | 29135 ft | 549 kts | 77° |
| 2026-04-25 18:40 | 45.84423 | -30.68243 | 29152 ft | 549 kts | 77° |
| 2026-04-25 18:40 | 45.86091 | -30.57591 | 29145 ft | 550 kts | 77° |
| 2026-04-25 18:41 | 45.87757 | -30.46881 | 29156 ft | 550 kts | 77° |
| 2026-04-25 18:41 | 45.89413 | -30.36165 | 29155 ft | 550 kts | 77° |
| 2026-04-25 18:42 | 45.90782 | -30.27251 | 29160 ft | 550 kts | 77° |
| 2026-04-25 18:42 | 45.92695 | -30.14709 | 29161 ft | 549 kts | 77° |
| 2026-04-25 18:43 | 45.94304 | -30.04082 | 29173 ft | 546 kts | 77° |
| 2026-04-25 18:43 | 45.95906 | -29.93413 | 29175 ft | 546 kts | 77° |
| 2026-04-25 18:44 | 45.97458 | -29.82715 | 29178 ft | 546 kts | 78° |
| 2026-04-25 18:44 | 45.98989 | -29.72014 | 29179 ft | 543 kts | 78° |
| 2026-04-25 18:45 | 46.00504 | -29.61392 | 29182 ft | 541 kts | 78° |
| 2026-04-25 18:45 | 46.02010 | -29.50784 | 29179 ft | 541 kts | 78° |
| 2026-04-25 18:46 | 46.03498 | -29.40236 | 29190 ft | 541 kts | 78° |
| 2026-04-25 18:46 | 46.04988 | -29.29606 | 29191 ft | 542 kts | 78° |
| 2026-04-25 18:47 | 46.06468 | -29.18966 | 29191 ft | 542 kts | 78° |
| 2026-04-25 18:47 | 46.07936 | -29.08337 | 29191 ft | 542 kts | 78° |
| 2026-04-25 18:48 | 46.09399 | -28.97674 | 29187 ft | 541 kts | 78° |
| 2026-04-25 18:48 | 46.10842 | -28.87071 | 29191 ft | 538 kts | 78° |
| 2026-04-25 18:49 | 46.12264 | -28.76550 | 29197 ft | 538 kts | 78° |
| 2026-04-25 18:49 | 46.13682 | -28.65972 | 29197 ft | 538 kts | 78° |
| 2026-04-25 18:50 | 46.15092 | -28.55386 | 29199 ft | 537 kts | 79° |
| 2026-04-25 18:50 | 46.16484 | -28.44847 | 29200 ft | 534 kts | 79° |
| 2026-04-25 18:51 | 46.17633 | -28.36093 | 29202 ft | 534 kts | 79° |
| 2026-04-25 18:51 | 46.19236 | -28.23784 | 29202 ft | 534 kts | 79° |
| 2026-04-25 18:52 | 46.20589 | -28.13316 | 29208 ft | 532 kts | 80° |
| 2026-04-25 18:52 | 46.21934 | -28.02822 | 29208 ft | 531 kts | 80° |
| 2026-04-25 18:53 | 46.23269 | -27.92327 | 29208 ft | 531 kts | 80° |
| 2026-04-25 18:53 | 46.24594 | -27.81833 | 29202 ft | 531 kts | 80° |
| 2026-04-25 18:54 | 46.26556 | -27.66146 | 29211 ft | 527 kts | 80° |
| 2026-04-25 18:55 | 46.27848 | -27.55710 | 29210 ft | 527 kts | 80° |
| 2026-04-25 18:55 | 46.29125 | -27.45275 | 29213 ft | 527 kts | 80° |
| 2026-04-25 18:56 | 46.30376 | -27.34904 | 29213 ft | 528 kts | 80° |
| 2026-04-25 18:56 | 46.31639 | -27.24409 | 29213 ft | 530 kts | 80° |
| 2026-04-25 18:57 | 46.32900 | -27.13886 | 29213 ft | 530 kts | 80° |
| 2026-04-25 18:57 | 46.34153 | -27.03379 | 29213 ft | 530 kts | 80° |
| 2026-04-25 18:58 | 46.35387 | -26.92931 | 29213 ft | 528 kts | 80° |
| 2026-04-25 18:58 | 46.37219 | -26.77238 | 29216 ft | 527 kts | 81° |
| 2026-04-25 18:59 | 46.39643 | -26.56286 | 29214 ft | 527 kts | 80° |
| 2026-04-25 19:00 | 46.41443 | -26.40521 | 29216 ft | 529 kts | 80° |
| 2026-04-25 19:01 | 46.43205 | -26.24789 | 29213 ft | 529 kts | 81° |
| 2026-04-25 19:01 | 46.44372 | -26.14245 | 29213 ft | 530 kts | 80° |
| 2026-04-25 19:02 | 46.46115 | -25.98346 | 29216 ft | 531 kts | 80° |
| 2026-04-25 19:03 | 46.47455 | -25.85977 | 29219 ft | 531 kts | 80° |
| 2026-04-25 19:03 | 46.48963 | -25.71878 | 29218 ft | 530 kts | 79° |
| 2026-04-25 19:04 | 46.50629 | -25.56121 | 29213 ft | 529 kts | 79° |
| 2026-04-25 19:05 | 46.52828 | -25.35001 | 29216 ft | 529 kts | 79° |
| 2026-04-25 19:06 | 46.53913 | -25.24419 | 29216 ft | 529 kts | 80° |
| 2026-04-25 19:06 | 46.55521 | -25.08562 | 29216 ft | 529 kts | 80° |
| 2026-04-25 19:07 | 46.57107 | -24.92683 | 29213 ft | 528 kts | 80° |
| 2026-04-25 19:08 | 46.58660 | -24.76922 | 29213 ft | 527 kts | 80° |
| 2026-04-25 19:09 | 46.60534 | -24.57586 | 29226 ft | 527 kts | 80° |
| 2026-04-25 19:10 | 46.62215 | -24.39934 | 29210 ft | 528 kts | 80° |
| 2026-04-25 19:10 | 46.63209 | -24.29357 | 29211 ft | 528 kts | 80° |
| 2026-04-25 19:11 | 46.64195 | -24.18757 | 29209 ft | 528 kts | 80° |
| 2026-04-25 19:11 | 46.65166 | -24.08227 | 29210 ft | 527 kts | 79° |
| 2026-04-25 19:12 | 46.66131 | -23.97627 | 29205 ft | 527 kts | 79° |
| 2026-04-25 19:12 | 46.67085 | -23.87044 | 29205 ft | 527 kts | 79° |
| 2026-04-25 19:13 | 46.68028 | -23.76464 | 29205 ft | 527 kts | 79° |
| 2026-04-25 19:13 | 46.68961 | -23.65880 | 29202 ft | 527 kts | 79° |
| 2026-04-25 19:14 | 46.69880 | -23.55358 | 29204 ft | 526 kts | 79° |
| 2026-04-25 19:14 | 46.70797 | -23.44755 | 29205 ft | 527 kts | 79° |
| 2026-04-25 19:15 | 46.71701 | -23.34161 | 29221 ft | 527 kts | 79° |
| 2026-04-25 19:15 | 46.72594 | -23.23585 | 29199 ft | 526 kts | 79° |
| 2026-04-25 19:16 | 46.73479 | -23.12983 | 29200 ft | 526 kts | 79° |
| 2026-04-25 19:16 | 46.74352 | -23.02413 | 29198 ft | 526 kts | 79° |
| 2026-04-25 19:17 | 46.75211 | -22.91888 | 29210 ft | 526 kts | 79° |
| 2026-04-25 19:17 | 46.76064 | -22.81302 | 29193 ft | 525 kts | 79° |
| 2026-04-25 19:18 | 46.76909 | -22.70701 | 29192 ft | 526 kts | 79° |
| 2026-04-25 19:18 | 46.77742 | -22.60119 | 29192 ft | 527 kts | 79° |
| 2026-04-25 19:19 | 46.78569 | -22.49491 | 29195 ft | 527 kts | 78° |
| 2026-04-25 19:19 | 46.79380 | -22.38929 | 29192 ft | 526 kts | 78° |
| 2026-04-25 19:20 | 46.80186 | -22.28312 | 29187 ft | 526 kts | 79° |
| 2026-04-25 19:20 | 46.80984 | -22.17674 | 29190 ft | 526 kts | 79° |
| 2026-04-25 19:21 | 46.81771 | -22.07056 | 29192 ft | 526 kts | 79° |
| 2026-04-25 19:21 | 46.82930 | -21.91131 | 29178 ft | 525 kts | 79° |
| 2026-04-25 19:22 | 46.83691 | -21.80526 | 29175 ft | 525 kts | 79° |
| 2026-04-25 19:23 | 46.84806 | -21.64722 | 29172 ft | 525 kts | 79° |
| 2026-04-25 19:23 | 46.85901 | -21.48844 | 29168 ft | 523 kts | 79° |
| 2026-04-25 19:24 | 46.86499 | -21.40055 | 29168 ft | 523 kts | 79° |
| 2026-04-25 19:25 | 46.87904 | -21.18980 | 29167 ft | 523 kts | 79° |
| 2026-04-25 19:25 | 46.88596 | -21.08381 | 29168 ft | 524 kts | 80° |
| 2026-04-25 19:26 | 46.89277 | -20.97782 | 29164 ft | 524 kts | 80° |
| 2026-04-25 19:26 | 46.89949 | -20.87190 | 29189 ft | 524 kts | 81° |
| 2026-04-25 19:27 | 46.90499 | -20.78379 | 29164 ft | 522 kts | 81° |
| 2026-04-25 19:27 | 46.91255 | -20.66097 | 29161 ft | 521 kts | 81° |
| 2026-04-25 19:28 | 46.91894 | -20.55545 | 29159 ft | 521 kts | 81° |
| 2026-04-25 19:28 | 46.92526 | -20.44963 | 29188 ft | 521 kts | 81° |
| 2026-04-25 19:29 | 46.93146 | -20.34417 | 29157 ft | 518 kts | 83° |
| 2026-04-25 19:29 | 46.93752 | -20.23905 | 29161 ft | 517 kts | 83° |
| 2026-04-25 19:30 | 46.94347 | -20.13427 | 29163 ft | 517 kts | 83° |
| 2026-04-25 19:30 | 46.94931 | -20.03014 | 29179 ft | 517 kts | 83° |
| 2026-04-25 19:31 | 46.96412 | -19.92810 | 29164 ft | 511 kts | 72° |
| 2026-04-25 19:31 | 46.98561 | -19.82887 | 29162 ft | 510 kts | 70° |
| 2026-04-25 19:32 | 47.00800 | -19.73017 | 29163 ft | 510 kts | 70° |
| 2026-04-25 19:32 | 47.02650 | -19.64817 | 29171 ft | 510 kts | 70° |
| 2026-04-25 19:33 | 47.05209 | -19.53335 | 29166 ft | 509 kts | 71° |
| 2026-04-25 19:33 | 47.07393 | -19.43434 | 29165 ft | 509 kts | 71° |
| 2026-04-25 19:34 | 47.09562 | -19.33547 | 29167 ft | 509 kts | 72° |
| 2026-04-25 19:34 | 47.11727 | -19.23640 | 29168 ft | 509 kts | 73° |
| 2026-04-25 19:35 | 47.13881 | -19.13735 | 29172 ft | 508 kts | 73° |
| 2026-04-25 19:35 | 47.16022 | -19.03849 | 29176 ft | 508 kts | 73° |
| 2026-04-25 19:36 | 47.18156 | -18.93947 | 29180 ft | 508 kts | 73° |
| 2026-04-25 19:36 | 47.20283 | -18.84028 | 29179 ft | 508 kts | 74° |
| 2026-04-25 19:37 | 47.22402 | -18.74096 | 29184 ft | 509 kts | 74° |
| 2026-04-25 19:37 | 47.24498 | -18.64229 | 29188 ft | 509 kts | 74° |
| 2026-04-25 19:38 | 47.26600 | -18.54283 | 29189 ft | 509 kts | 74° |
| 2026-04-25 19:38 | 47.28693 | -18.44337 | 29197 ft | 508 kts | 75° |
| 2026-04-25 19:39 | 47.30781 | -18.34357 | 29200 ft | 508 kts | 75° |
| 2026-04-25 19:39 | 47.32843 | -18.24451 | 29200 ft | 508 kts | 75° |
| 2026-04-25 19:40 | 47.34911 | -18.14473 | 29208 ft | 508 kts | 75° |
| 2026-04-25 19:40 | 47.36969 | -18.04493 | 29230 ft | 508 kts | 76° |
| 2026-04-25 19:41 | 47.39016 | -17.94513 | 29213 ft | 507 kts | 76° |
| 2026-04-25 19:41 | 47.40367 | -17.87900 | 29217 ft | 507 kts | 76° |
| 2026-04-25 19:42 | 47.43065 | -17.74627 | 29194 ft | 507 kts | 76° |
| 2026-04-25 19:42 | 47.45085 | -17.64633 | 29219 ft | 507 kts | 76° |
| 2026-04-25 19:43 | 47.47097 | -17.54626 | 29230 ft | 507 kts | 76° |
| 2026-04-25 19:43 | 47.49100 | -17.44615 | 29234 ft | 507 kts | 77° |
| 2026-04-25 19:44 | 47.51092 | -17.34605 | 29242 ft | 507 kts | 77° |
| 2026-04-25 19:44 | 47.53065 | -17.24641 | 29248 ft | 507 kts | 77° |
| 2026-04-25 19:45 | 47.55038 | -17.14624 | 29250 ft | 507 kts | 77° |
| 2026-04-25 19:45 | 47.57005 | -17.04589 | 29238 ft | 507 kts | 77° |
| 2026-04-25 19:46 | 47.58960 | -16.94562 | 29238 ft | 507 kts | 77° |
| 2026-04-25 19:46 | 47.60914 | -16.84482 | 29255 ft | 509 kts | 77° |
| 2026-04-25 19:47 | 47.62860 | -16.74394 | 29253 ft | 509 kts | 77° |
| 2026-04-25 19:47 | 47.64786 | -16.64362 | 29265 ft | 509 kts | 77° |
| 2026-04-25 19:48 | 47.66713 | -16.54268 | 29255 ft | 509 kts | 78° |
| 2026-04-25 19:48 | 47.68634 | -16.44147 | 29264 ft | 509 kts | 78° |
| 2026-04-25 19:49 | 47.69914 | -16.37377 | 29270 ft | 509 kts | 78° |
| 2026-04-25 19:49 | 47.72447 | -16.23898 | 29272 ft | 509 kts | 78° |
| 2026-04-25 19:50 | 47.75283 | -16.08696 | 29279 ft | 510 kts | 78° |
| 2026-04-25 19:51 | 47.77159 | -15.98572 | 29283 ft | 510 kts | 78° |
| 2026-04-25 19:51 | 47.79037 | -15.88382 | 29284 ft | 510 kts | 78° |
| 2026-04-25 19:52 | 47.80904 | -15.78193 | 29255 ft | 510 kts | 78° |
| 2026-04-25 19:52 | 47.82765 | -15.67975 | 29287 ft | 513 kts | 78° |
| 2026-04-25 19:53 | 47.84613 | -15.57774 | 29287 ft | 513 kts | 78° |
| 2026-04-25 19:53 | 47.86464 | -15.47511 | 29293 ft | 513 kts | 79° |
| 2026-04-25 19:54 | 47.88304 | -15.37243 | 29278 ft | 513 kts | 79° |
| 2026-04-25 19:54 | 47.90142 | -15.26926 | 29298 ft | 515 kts | 79° |
| 2026-04-25 19:55 | 47.91665 | -15.18331 | 29297 ft | 516 kts | 79° |
| 2026-04-25 19:55 | 47.93787 | -15.06292 | 29300 ft | 516 kts | 79° |
| 2026-04-25 19:56 | 47.95846 | -14.96032 | 29294 ft | 520 kts | 71° |
| 2026-04-25 19:56 | 47.98670 | -14.86074 | 29306 ft | 521 kts | 69° |
| 2026-04-25 19:57 | 48.01609 | -14.76180 | 29306 ft | 522 kts | 69° |
| 2026-04-25 19:57 | 48.04560 | -14.66260 | 29306 ft | 521 kts | 69° |
| 2026-04-25 19:58 | 48.07490 | -14.56326 | 29308 ft | 523 kts | 69° |
| 2026-04-25 19:58 | 48.10412 | -14.46343 | 29308 ft | 525 kts | 69° |
| 2026-04-25 19:59 | 48.13312 | -14.36389 | 29311 ft | 525 kts | 69° |
| 2026-04-25 19:59 | 48.16221 | -14.26367 | 29314 ft | 524 kts | 69° |
| 2026-04-25 20:00 | 48.19122 | -14.16335 | 29315 ft | 525 kts | 69° |
| 2026-04-25 20:00 | 48.22020 | -14.06267 | 29324 ft | 526 kts | 69° |
| 2026-04-25 20:01 | 48.26329 | -13.91226 | 29319 ft | 521 kts | 70° |
| 2026-04-25 20:01 | 48.29181 | -13.81213 | 29311 ft | 521 kts | 69° |
| 2026-04-25 20:02 | 48.32031 | -13.71166 | 29319 ft | 523 kts | 70° |
| 2026-04-25 20:02 | 48.34876 | -13.61097 | 29319 ft | 523 kts | 70° |
| 2026-04-25 20:03 | 48.37708 | -13.51029 | 29322 ft | 523 kts | 70° |
| 2026-04-25 20:03 | 48.40519 | -13.40997 | 29322 ft | 523 kts | 70° |
| 2026-04-25 20:04 | 48.43339 | -13.30888 | 29325 ft | 523 kts | 70° |
| 2026-04-25 20:04 | 48.46147 | -13.20781 | 29325 ft | 523 kts | 70° |
| 2026-04-25 20:05 | 48.48949 | -13.10652 | 29321 ft | 523 kts | 70° |
| 2026-04-25 20:05 | 48.51738 | -13.00524 | 29329 ft | 523 kts | 70° |
| 2026-04-25 20:06 | 48.54503 | -12.90443 | 29332 ft | 523 kts | 70° |
| 2026-04-25 20:06 | 48.57277 | -12.80283 | 29327 ft | 523 kts | 70° |
| 2026-04-25 20:07 | 48.60064 | -12.70035 | 29330 ft | 523 kts | 70° |
| 2026-04-25 20:07 | 48.62814 | -12.59876 | 29328 ft | 522 kts | 70° |
| 2026-04-25 20:08 | 48.65554 | -12.49713 | 29326 ft | 522 kts | 71° |
| 2026-04-25 20:08 | 48.68278 | -12.39534 | 29326 ft | 522 kts | 71° |
| 2026-04-25 20:09 | 48.70984 | -12.29407 | 29326 ft | 522 kts | 71° |
| 2026-04-25 20:09 | 48.73705 | -12.19196 | 29327 ft | 523 kts | 70° |
| 2026-04-25 20:10 | 48.76368 | -12.10942 | 29329 ft | 528 kts | 58° |
| 2026-04-25 20:10 | 48.78646 | -12.06548 | 29328 ft | 530 kts | 47° |
| 2026-04-25 20:10 | 48.81394 | -12.02825 | 29324 ft | 530 kts | 39° |
| 2026-04-25 20:11 | 48.88284 | -11.95048 | 29329 ft | 531 kts | 35° |
| 2026-04-25 20:11 | 48.93374 | -11.89666 | 29321 ft | 531 kts | 34° |
| 2026-04-25 20:12 | 48.99409 | -11.83172 | 29324 ft | 531 kts | 38° |
| 2026-04-25 20:12 | 49.02125 | -11.79362 | 29331 ft | 530 kts | 49° |
| 2026-04-25 20:12 | 49.03662 | -11.76480 | 29326 ft | 529 kts | 56° |
| 2026-04-25 20:13 | 49.05941 | -11.69945 | 29629 ft | 525 kts | 72° |
| 2026-04-25 20:13 | 49.06960 | -11.64649 | 30134 ft | 520 kts | 79° |
| 2026-04-25 20:13 | 49.07780 | -11.59287 | 30521 ft | 518 kts | 81° |
| 2026-04-25 20:13 | 49.08514 | -11.53898 | 30874 ft | 517 kts | 82° |
| 2026-04-25 20:14 | 49.09209 | -11.48502 | 31145 ft | 518 kts | 82° |
| 2026-04-25 20:14 | 49.09896 | -11.43086 | 31222 ft | 521 kts | 82° |
| 2026-04-25 20:14 | 49.11291 | -11.32212 | 31228 ft | 523 kts | 82° |
| 2026-04-25 20:15 | 49.12712 | -11.21305 | 31229 ft | 525 kts | 82° |
| 2026-04-25 20:15 | 49.14133 | -11.10429 | 31209 ft | 524 kts | 81° |
| 2026-04-25 20:16 | 49.15552 | -10.99488 | 31233 ft | 526 kts | 81° |
| 2026-04-25 20:16 | 49.16962 | -10.88510 | 31233 ft | 526 kts | 82° |
| 2026-04-25 20:17 | 49.18360 | -10.77535 | 31230 ft | 526 kts | 82° |
| 2026-04-25 20:17 | 49.19747 | -10.66554 | 31214 ft | 526 kts | 81° |
| 2026-04-25 20:18 | 49.21122 | -10.55579 | 31234 ft | 526 kts | 82° |
| 2026-04-25 20:18 | 49.22490 | -10.44580 | 31235 ft | 526 kts | 82° |
| 2026-04-25 20:19 | 49.23837 | -10.33654 | 31232 ft | 526 kts | 82° |
| 2026-04-25 20:19 | 49.25175 | -10.22650 | 31225 ft | 525 kts | 82° |
| 2026-04-25 20:20 | 49.26504 | -10.11640 | 31232 ft | 525 kts | 82° |
| 2026-04-25 20:20 | 49.27827 | -10.00624 | 31240 ft | 525 kts | 82° |
| 2026-04-25 20:21 | 49.29140 | -9.89614 | 31227 ft | 525 kts | 82° |
| 2026-04-25 20:21 | 49.30433 | -9.78678 | 31238 ft | 525 kts | 82° |
| 2026-04-25 20:22 | 49.31517 | -9.69440 | 31239 ft | 526 kts | 82° |
| 2026-04-25 20:22 | 49.33009 | -9.56603 | 31237 ft | 526 kts | 82° |
| 2026-04-25 20:23 | 49.34283 | -9.45550 | 31238 ft | 526 kts | 82° |
| 2026-04-25 20:23 | 49.35550 | -9.34499 | 31239 ft | 526 kts | 82° |
| 2026-04-25 20:24 | 49.36808 | -9.23450 | 31241 ft | 526 kts | 82° |
| 2026-04-25 20:24 | 49.38052 | -9.12384 | 31239 ft | 526 kts | 82° |
| 2026-04-25 20:25 | 49.39274 | -9.01385 | 31240 ft | 526 kts | 82° |
| 2026-04-25 20:25 | 49.40492 | -8.90321 | 31243 ft | 526 kts | 82° |
| 2026-04-25 20:26 | 49.41701 | -8.79246 | 31239 ft | 526 kts | 82° |
| 2026-04-25 20:26 | 49.42901 | -8.68154 | 31237 ft | 526 kts | 82° |
| 2026-04-25 20:27 | 49.44088 | -8.57070 | 31242 ft | 526 kts | 82° |
| 2026-04-25 20:27 | 49.45203 | -8.45959 | 31237 ft | 525 kts | 86° |
| 2026-04-25 20:28 | 49.45160 | -8.34791 | 31244 ft | 522 kts | 96° |
| 2026-04-25 20:28 | 49.44603 | -8.23678 | 31240 ft | 521 kts | 97° |
| 2026-04-25 20:29 | 49.43945 | -8.12586 | 31244 ft | 521 kts | 97° |
| 2026-04-25 20:29 | 49.43289 | -8.01475 | 31242 ft | 522 kts | 97° |
| 2026-04-25 20:30 | 49.42647 | -7.90435 | 31241 ft | 522 kts | 97° |
| 2026-04-25 20:30 | 49.41997 | -7.79322 | 31243 ft | 522 kts | 97° |
| 2026-04-25 20:31 | 49.41337 | -7.68217 | 31238 ft | 522 kts | 97° |
| 2026-04-25 20:31 | 49.40665 | -7.57098 | 31240 ft | 522 kts | 97° |
| 2026-04-25 20:32 | 49.39983 | -7.46007 | 31238 ft | 523 kts | 97° |
| 2026-04-25 20:32 | 49.39288 | -7.34886 | 31242 ft | 523 kts | 97° |
| 2026-04-25 20:33 | 49.38584 | -7.23795 | 31241 ft | 523 kts | 97° |
| 2026-04-25 20:33 | 49.38003 | -7.14565 | 31235 ft | 523 kts | 96° |
| 2026-04-25 20:34 | 49.37993 | -7.01570 | 31238 ft | 524 kts | 90° |
| 2026-04-25 20:34 | 49.38177 | -6.90370 | 31236 ft | 525 kts | 89° |
| 2026-04-25 20:35 | 49.38277 | -6.84755 | 31387 ft | 526 kts | 89° |
| 2026-04-25 20:35 | 49.38373 | -6.79189 | 31764 ft | 524 kts | 89° |
| 2026-04-25 20:35 | 49.38463 | -6.73670 | 32126 ft | 523 kts | 90° |
| 2026-04-25 20:35 | 49.38547 | -6.68191 | 32448 ft | 523 kts | 89° |
| 2026-04-25 20:36 | 49.38627 | -6.62655 | 32810 ft | 521 kts | 89° |
| 2026-04-25 20:36 | 49.38702 | -6.57147 | 33113 ft | 521 kts | 89° |
| 2026-04-25 20:36 | 49.38775 | -6.51622 | 33423 ft | 521 kts | 89° |
| 2026-04-25 20:36 | 49.38845 | -6.46079 | 33736 ft | 521 kts | 89° |
| 2026-04-25 20:37 | 49.38912 | -6.40606 | 34044 ft | 520 kts | 90° |
| 2026-04-25 20:37 | 49.38977 | -6.35024 | 34328 ft | 520 kts | 90° |
| 2026-04-25 20:37 | 49.39038 | -6.29623 | 34600 ft | 519 kts | 90° |
| 2026-04-25 20:37 | 49.39098 | -6.24053 | 34894 ft | 518 kts | 89° |
| 2026-04-25 20:38 | 49.39152 | -6.18688 | 35157 ft | 517 kts | 89° |
| 2026-04-25 20:38 | 49.39207 | -6.13038 | 35234 ft | 520 kts | 89° |
| 2026-04-25 20:38 | 49.39303 | -6.02046 | 35233 ft | 517 kts | 89° |
| 2026-04-25 20:39 | 49.39389 | -5.91007 | 35233 ft | 517 kts | 89° |
| 2026-04-25 20:39 | 49.39453 | -5.81821 | 35230 ft | 517 kts | 89° |
| 2026-04-25 20:40 | 49.39533 | -5.68922 | 35230 ft | 516 kts | 89° |
| 2026-04-25 20:40 | 49.39592 | -5.57911 | 35230 ft | 516 kts | 89° |
| 2026-04-25 20:41 | 49.39645 | -5.46959 | 35222 ft | 516 kts | 89° |
| 2026-04-25 20:41 | 49.39688 | -5.35921 | 35222 ft | 516 kts | 89° |
| 2026-04-25 20:42 | 49.39715 | -5.24941 | 35224 ft | 515 kts | 89° |
| 2026-04-25 20:42 | 49.39728 | -5.13925 | 35222 ft | 515 kts | 89° |
| 2026-04-25 20:43 | 49.39734 | -5.02932 | 35222 ft | 515 kts | 89° |
| 2026-04-25 20:43 | 49.39640 | -4.91930 | 35220 ft | 515 kts | 92° |
| 2026-04-25 20:44 | 49.39069 | -4.80957 | 35219 ft | 515 kts | 95° |
| 2026-04-25 20:44 | 49.38414 | -4.70006 | 35219 ft | 515 kts | 95° |
| 2026-04-25 20:45 | 49.37820 | -4.59120 | 35219 ft | 515 kts | 94° |
| 2026-04-25 20:45 | 49.37261 | -4.48158 | 35219 ft | 515 kts | 94° |
| 2026-04-25 20:46 | 49.36703 | -4.37189 | 35216 ft | 514 kts | 94° |
| 2026-04-25 20:46 | 49.36129 | -4.26237 | 35214 ft | 514 kts | 94° |
| 2026-04-25 20:47 | 49.35541 | -4.15314 | 35216 ft | 514 kts | 94° |
| 2026-04-25 20:47 | 49.34944 | -4.04437 | 35214 ft | 514 kts | 94° |
| 2026-04-25 20:48 | 49.34333 | -3.93511 | 35211 ft | 515 kts | 94° |
| 2026-04-25 20:48 | 49.33712 | -3.82583 | 35208 ft | 515 kts | 94° |
| 2026-04-25 20:49 | 49.33080 | -3.71637 | 35208 ft | 515 kts | 94° |
| 2026-04-25 20:49 | 49.32436 | -3.60688 | 35208 ft | 515 kts | 94° |
| 2026-04-25 20:50 | 49.31783 | -3.49754 | 35211 ft | 515 kts | 94° |
| 2026-04-25 20:50 | 49.31121 | -3.38826 | 35211 ft | 515 kts | 94° |
| 2026-04-25 20:51 | 49.30452 | -3.27966 | 35211 ft | 515 kts | 94° |
| 2026-04-25 20:51 | 49.29770 | -3.17049 | 35211 ft | 515 kts | 94° |
| 2026-04-25 20:52 | 49.29308 | -3.09748 | 35216 ft | 515 kts | 94° |
| 2026-04-25 20:52 | 49.28377 | -2.95248 | 35207 ft | 513 kts | 94° |
| 2026-04-25 20:53 | 49.27666 | -2.84369 | 35209 ft | 513 kts | 94° |
| 2026-04-25 20:53 | 49.26944 | -2.73486 | 35206 ft | 513 kts | 94° |
| 2026-04-25 20:54 | 49.26217 | -2.62675 | 35214 ft | 512 kts | 94° |
| 2026-04-25 20:54 | 49.25479 | -2.51866 | 35210 ft | 508 kts | 94° |
| 2026-04-25 20:55 | 49.24734 | -2.41117 | 35210 ft | 507 kts | 94° |
| 2026-04-25 20:55 | 49.23981 | -2.30380 | 35211 ft | 507 kts | 95° |
| 2026-04-25 20:56 | 49.23218 | -2.19647 | 35218 ft | 507 kts | 95° |
| 2026-04-25 20:56 | 49.22576 | -2.10716 | 35210 ft | 507 kts | 95° |
| 2026-04-25 20:57 | 49.21421 | -2.00059 | 35212 ft | 508 kts | 101° |
| 2026-04-25 20:57 | 49.19856 | -1.89525 | 35212 ft | 509 kts | 102° |
| 2026-04-25 20:58 | 49.18217 | -1.78997 | 35216 ft | 509 kts | 102° |
| 2026-04-25 20:58 | 49.16566 | -1.68464 | 35218 ft | 509 kts | 102° |
| 2026-04-25 20:59 | 49.14915 | -1.57923 | 35195 ft | 510 kts | 102° |
| 2026-04-25 20:59 | 49.13270 | -1.47459 | 35201 ft | 510 kts | 102° |
| 2026-04-25 21:00 | 49.11881 | -1.38674 | 35206 ft | 510 kts | 102° |
| 2026-04-25 21:01 | 49.09110 | -1.21292 | 35205 ft | 506 kts | 103° |
| 2026-04-25 21:01 | 49.07435 | -1.10880 | 35200 ft | 505 kts | 102° |
| 2026-04-25 21:02 | 49.05753 | -1.00483 | 35196 ft | 505 kts | 102° |
| 2026-04-25 21:02 | 49.04060 | -0.90085 | 35184 ft | 505 kts | 103° |
| 2026-04-25 21:03 | 49.02357 | -0.79701 | 35191 ft | 503 kts | 103° |
| 2026-04-25 21:03 | 49.00657 | -0.69388 | 35201 ft | 502 kts | 103° |
| 2026-04-25 21:04 | 48.98947 | -0.59078 | 35194 ft | 502 kts | 103° |
| 2026-04-25 21:04 | 48.97239 | -0.48844 | 35199 ft | 502 kts | 103° |
| 2026-04-25 21:05 | 48.95512 | -0.38551 | 35206 ft | 502 kts | 103° |
| 2026-04-25 21:05 | 48.93773 | -0.28250 | 35212 ft | 502 kts | 103° |
| 2026-04-25 21:06 | 48.92027 | -0.17971 | 35194 ft | 502 kts | 103° |
| 2026-04-25 21:06 | 48.90293 | -0.07685 | 35194 ft | 502 kts | 101° |
| 2026-04-25 21:07 | 48.89047 | 0.02736 | 35199 ft | 501 kts | 98° |
| 2026-04-25 21:07 | 48.87962 | 0.13171 | 35195 ft | 499 kts | 98° |
| 2026-04-25 21:08 | 48.86891 | 0.23576 | 35207 ft | 498 kts | 98° |
| 2026-04-25 21:08 | 48.85799 | 0.33961 | 35210 ft | 498 kts | 98° |
| 2026-04-25 21:09 | 48.84122 | 0.49566 | 35205 ft | 499 kts | 98° |
| 2026-04-25 21:09 | 48.82991 | 0.59962 | 35200 ft | 499 kts | 99° |
| 2026-04-25 21:10 | 48.81857 | 0.70301 | 35200 ft | 499 kts | 99° |
| 2026-04-25 21:10 | 48.80708 | 0.80697 | 35194 ft | 500 kts | 99° |
| 2026-04-25 21:11 | 48.79549 | 0.91087 | 35195 ft | 499 kts | 99° |
| 2026-04-25 21:11 | 48.78381 | 1.01464 | 35200 ft | 499 kts | 99° |
| 2026-04-25 21:12 | 48.77205 | 1.11831 | 35199 ft | 499 kts | 99° |
| 2026-04-25 21:12 | 48.76221 | 1.20446 | 35201 ft | 499 kts | 99° |
| 2026-04-25 21:13 | 48.74833 | 1.32488 | 35204 ft | 499 kts | 99° |
| 2026-04-25 21:13 | 48.73628 | 1.42848 | 35200 ft | 498 kts | 99° |
| 2026-04-25 21:14 | 48.72416 | 1.53182 | 35191 ft | 498 kts | 99° |
| 2026-04-25 21:14 | 48.71195 | 1.63521 | 35199 ft | 498 kts | 99° |
| 2026-04-25 21:15 | 48.69971 | 1.73788 | 35196 ft | 498 kts | 99° |
| 2026-04-25 21:15 | 48.68725 | 1.84137 | 35202 ft | 500 kts | 100° |
| 2026-04-25 21:16 | 48.67473 | 1.94494 | 35211 ft | 500 kts | 100° |
| 2026-04-25 21:16 | 48.66213 | 2.04836 | 35208 ft | 500 kts | 100° |
| 2026-04-25 21:17 | 48.64946 | 2.15137 | 35213 ft | 500 kts | 100° |
| 2026-04-25 21:17 | 48.63662 | 2.25493 | 35208 ft | 501 kts | 101° |
| 2026-04-25 21:18 | 48.62369 | 2.35841 | 35205 ft | 502 kts | 101° |
| 2026-04-25 21:18 | 48.61063 | 2.46218 | 35209 ft | 502 kts | 101° |
| 2026-04-25 21:19 | 48.59749 | 2.56585 | 35182 ft | 502 kts | 101° |
| 2026-04-25 21:19 | 48.58436 | 2.66869 | 35181 ft | 502 kts | 102° |
| 2026-04-25 21:20 | 48.57319 | 2.75550 | 35188 ft | 503 kts | 102° |
| 2026-04-25 21:20 | 48.55759 | 2.87593 | 35192 ft | 503 kts | 102° |
| 2026-04-25 21:21 | 48.54578 | 2.97991 | 35192 ft | 504 kts | 95° |
| 2026-04-25 21:21 | 48.54094 | 3.08549 | 35188 ft | 504 kts | 94° |
| 2026-04-25 21:22 | 48.53720 | 3.19148 | 35188 ft | 505 kts | 94° |
| 2026-04-25 21:22 | 48.53356 | 3.29721 | 35187 ft | 505 kts | 94° |
| 2026-04-25 21:23 | 48.52980 | 3.40300 | 35187 ft | 505 kts | 94° |
| 2026-04-25 21:23 | 48.52585 | 3.50890 | 35190 ft | 506 kts | 94° |
| 2026-04-25 21:24 | 48.52174 | 3.61490 | 35186 ft | 507 kts | 94° |
| 2026-04-25 21:24 | 48.51752 | 3.72098 | 35185 ft | 507 kts | 94° |
| 2026-04-25 21:25 | 48.51322 | 3.82637 | 35184 ft | 507 kts | 94° |
| 2026-04-25 21:25 | 48.50881 | 3.93244 | 35184 ft | 507 kts | 94° |
| 2026-04-25 21:26 | 48.49662 | 4.03654 | 35178 ft | 504 kts | 110° |
| 2026-04-25 21:26 | 48.46785 | 4.13243 | 35182 ft | 502 kts | 118° |
| 2026-04-25 21:27 | 48.43556 | 4.22576 | 35182 ft | 502 kts | 120° |
| 2026-04-25 21:27 | 48.40281 | 4.31856 | 35172 ft | 502 kts | 119° |
| 2026-04-25 21:28 | 48.37008 | 4.41178 | 35177 ft | 503 kts | 119° |
| 2026-04-25 21:28 | 48.33749 | 4.50494 | 35172 ft | 503 kts | 119° |
| 2026-04-25 21:29 | 48.30491 | 4.59789 | 35174 ft | 502 kts | 119° |
| 2026-04-25 21:29 | 48.27231 | 4.69062 | 35174 ft | 502 kts | 119° |
| 2026-04-25 21:30 | 48.24055 | 4.78402 | 35170 ft | 504 kts | 114° |
| 2026-04-25 21:30 | 48.22092 | 4.86644 | 35168 ft | 504 kts | 109° |
| 2026-04-25 21:31 | 48.19619 | 4.98322 | 35169 ft | 505 kts | 108° |
| 2026-04-25 21:31 | 48.17527 | 5.08371 | 35172 ft | 505 kts | 108° |
| 2026-04-25 21:32 | 48.15413 | 5.18401 | 35164 ft | 505 kts | 108° |
| 2026-04-25 21:32 | 48.13278 | 5.28415 | 35175 ft | 505 kts | 108° |
| 2026-04-25 21:33 | 48.11146 | 5.38354 | 35163 ft | 505 kts | 108° |
| 2026-04-25 21:33 | 48.08973 | 5.48416 | 35174 ft | 505 kts | 109° |
| 2026-04-25 21:34 | 48.06822 | 5.58336 | 35173 ft | 504 kts | 109° |
| 2026-04-25 21:34 | 48.04652 | 5.68309 | 35170 ft | 505 kts | 109° |
| 2026-04-25 21:35 | 48.02475 | 5.78269 | 35168 ft | 505 kts | 109° |
| 2026-04-25 21:35 | 48.00285 | 5.88243 | 35168 ft | 505 kts | 109° |
| 2026-04-25 21:36 | 47.98086 | 5.98207 | 35167 ft | 505 kts | 109° |
| 2026-04-25 21:36 | 47.95876 | 6.08170 | 35167 ft | 505 kts | 109° |
| 2026-04-25 21:37 | 47.94408 | 6.14768 | 35165 ft | 506 kts | 109° |
| 2026-04-25 21:37 | 47.92559 | 6.23041 | 34888 ft | 505 kts | 109° |
| 2026-04-25 21:37 | 47.91443 | 6.28024 | 34437 ft | 505 kts | 109° |
| 2026-04-25 21:38 | 47.90326 | 6.32993 | 33896 ft | 507 kts | 109° |
| 2026-04-25 21:38 | 47.89206 | 6.37967 | 33224 ft | 503 kts | 109° |
| 2026-04-25 21:38 | 47.88107 | 6.42834 | 32553 ft | 489 kts | 109° |
| 2026-04-25 21:38 | 47.87010 | 6.47683 | 32148 ft | 499 kts | 109° |
| 2026-04-25 21:39 | 47.85896 | 6.52597 | 31651 ft | 501 kts | 108° |
| 2026-04-25 21:39 | 47.84799 | 6.57423 | 31055 ft | 499 kts | 108° |
| 2026-04-25 21:39 | 47.83688 | 6.62303 | 30444 ft | 496 kts | 108° |
| 2026-04-25 21:39 | 47.82585 | 6.67134 | 29767 ft | 493 kts | 108° |
| 2026-04-25 21:40 | 47.81481 | 6.71955 | 29072 ft | 490 kts | 108° |
| 2026-04-25 21:40 | 47.80385 | 6.76733 | 28380 ft | 487 kts | 108° |
| 2026-04-25 21:40 | 47.79295 | 6.81478 | 27716 ft | 483 kts | 108° |
| 2026-04-25 21:40 | 47.78209 | 6.86191 | 27063 ft | 480 kts | 108° |
| 2026-04-25 21:41 | 47.77124 | 6.90891 | 26429 ft | 477 kts | 108° |
| 2026-04-25 21:41 | 47.76048 | 6.95539 | 25815 ft | 473 kts | 108° |
| 2026-04-25 21:41 | 47.74982 | 7.00138 | 25197 ft | 465 kts | 108° |
| 2026-04-25 21:41 | 47.74294 | 7.03102 | 24834 ft | 455 kts | 108° |
| 2026-04-25 21:42 | 47.73263 | 7.07533 | 24345 ft | 453 kts | 108° |
| 2026-04-25 21:42 | 47.72234 | 7.11945 | 23871 ft | 450 kts | 108° |
| 2026-04-25 21:42 | 47.71215 | 7.16306 | 23376 ft | 446 kts | 108° |
| 2026-04-25 21:42 | 47.69873 | 7.22038 | 22664 ft | 441 kts | 107° |
| 2026-04-25 21:43 | 47.69192 | 7.24939 | 22306 ft | 439 kts | 107° |
| 2026-04-25 21:43 | 47.68191 | 7.29198 | 21787 ft | 436 kts | 107° |
| 2026-04-25 21:43 | 47.67207 | 7.33377 | 21287 ft | 432 kts | 107° |
| 2026-04-25 21:43 | 47.66218 | 7.37569 | 20833 ft | 428 kts | 107° |
| 2026-04-25 21:44 | 47.65236 | 7.41726 | 20438 ft | 427 kts | 107° |
| 2026-04-25 21:44 | 47.64253 | 7.45876 | 19961 ft | 424 kts | 107° |
| 2026-04-25 21:44 | 47.62313 | 7.54076 | 19156 ft | 418 kts | 107° |
| 2026-04-25 21:45 | 47.61365 | 7.58148 | 18765 ft | 416 kts | 106° |
| 2026-04-25 21:45 | 47.60741 | 7.60830 | 18508 ft | 414 kts | 106° |
| 2026-04-25 21:45 | 47.59485 | 7.66203 | 18018 ft | 411 kts | 106° |
| 2026-04-25 21:45 | 47.58551 | 7.70188 | 17669 ft | 408 kts | 107° |
| 2026-04-25 21:46 | 47.57631 | 7.74105 | 17322 ft | 406 kts | 107° |
| 2026-04-25 21:46 | 47.56708 | 7.78044 | 16987 ft | 403 kts | 107° |
| 2026-04-25 21:46 | 47.55788 | 7.81944 | 16656 ft | 401 kts | 107° |
| 2026-04-25 21:46 | 47.54867 | 7.85842 | 16323 ft | 398 kts | 107° |
| 2026-04-25 21:47 | 47.53955 | 7.89693 | 16150 ft | 396 kts | 107° |
| 2026-04-25 21:47 | 47.53042 | 7.93540 | 15817 ft | 395 kts | 107° |
| 2026-04-25 21:47 | 47.52135 | 7.97360 | 15459 ft | 392 kts | 107° |
| 2026-04-25 21:47 | 47.51233 | 8.01151 | 15204 ft | 390 kts | 107° |
| 2026-04-25 21:48 | 47.50333 | 8.04929 | 15048 ft | 387 kts | 107° |
| 2026-04-25 21:48 | 47.49442 | 8.08687 | 15041 ft | 387 kts | 107° |
| 2026-04-25 21:48 | 47.48544 | 8.12436 | 14904 ft | 387 kts | 108° |
| 2026-04-25 21:48 | 47.47644 | 8.16180 | 14549 ft | 385 kts | 108° |
| 2026-04-25 21:49 | 47.46743 | 8.19894 | 14301 ft | 383 kts | 109° |
| 2026-04-25 21:49 | 47.45558 | 8.23421 | 14061 ft | 383 kts | 122° |
| 2026-04-25 21:49 | 47.43852 | 8.26368 | 13816 ft | 375 kts | 138° |
| 2026-04-25 21:49 | 47.41719 | 8.28477 | 13542 ft | 366 kts | 154° |
| 2026-04-25 21:50 | 47.39393 | 8.29753 | 13293 ft | 356 kts | 160° |
| 2026-04-25 21:50 | 47.37185 | 8.31305 | 13035 ft | 348 kts | 144° |
| 2026-04-25 21:50 | 47.35568 | 8.33860 | 12763 ft | 340 kts | 118° |
| 2026-04-25 21:50 | 47.34996 | 8.36025 | 12599 ft | 333 kts | 100° |
| 2026-04-25 21:51 | 47.34894 | 8.40433 | 12258 ft | 321 kts | 87° |
| 2026-04-25 21:51 | 47.34699 | 8.43714 | 12004 ft | 317 kts | 96° |
| 2026-04-25 21:51 | 47.34502 | 8.46896 | 11751 ft | 312 kts | 92° |
| 2026-04-25 21:51 | 47.34339 | 8.50069 | 11510 ft | 308 kts | 93° |
| 2026-04-25 21:52 | 47.34158 | 8.53202 | 11258 ft | 305 kts | 94° |
| 2026-04-25 21:52 | 47.33964 | 8.56304 | 11011 ft | 303 kts | 94° |
| 2026-04-25 21:52 | 47.33757 | 8.59386 | 10774 ft | 302 kts | 95° |
| 2026-04-25 21:52 | 47.33540 | 8.62460 | 10528 ft | 301 kts | 95° |
| 2026-04-25 21:53 | 47.33321 | 8.65522 | 10288 ft | 300 kts | 95° |
| 2026-04-25 21:53 | 47.33105 | 8.68572 | 10049 ft | 299 kts | 95° |
| 2026-04-25 21:53 | 47.32889 | 8.71574 | 9789 ft | 296 kts | 95° |
| 2026-04-25 21:53 | 47.32671 | 8.74567 | 9527 ft | 292 kts | 95° |
| 2026-04-25 21:54 | 47.32457 | 8.77512 | 9258 ft | 285 kts | 95° |
| 2026-04-25 21:54 | 47.32252 | 8.80365 | 8993 ft | 272 kts | 95° |
| 2026-04-25 21:54 | 47.32051 | 8.83108 | 8731 ft | 268 kts | 95° |
| 2026-04-25 21:54 | 47.31848 | 8.85832 | 8469 ft | 267 kts | 96° |
| 2026-04-25 21:55 | 47.31646 | 8.88549 | 8218 ft | 266 kts | 96° |
| 2026-04-25 21:55 | 47.31445 | 8.91247 | 7964 ft | 264 kts | 96° |
| 2026-04-25 21:55 | 47.31301 | 8.93926 | 7714 ft | 262 kts | 88° |
| 2026-04-25 21:55 | 47.31786 | 8.96468 | 7467 ft | 258 kts | 58° |
| 2026-04-25 21:56 | 47.33001 | 8.98295 | 7225 ft | 253 kts | 28° |
| 2026-04-25 21:56 | 47.34099 | 8.98940 | 7061 ft | 249 kts | 11° |
| 2026-04-25 21:56 | 47.36356 | 8.99407 | 6732 ft | 244 kts | 4° |
| 2026-04-25 21:56 | 47.38012 | 8.99592 | 6465 ft | 232 kts | 359° |
| 2026-04-25 21:57 | 47.39538 | 8.99131 | 6197 ft | 220 kts | 338° |
| 2026-04-25 21:57 | 47.40944 | 8.98231 | 5829 ft | 219 kts | 334° |
| 2026-04-25 21:57 | 47.42181 | 8.97037 | 5525 ft | 208 kts | 308° |
| 2026-04-25 21:57 | 47.42811 | 8.95171 | 5269 ft | 201 kts | 286° |
| 2026-04-25 21:58 | 47.43070 | 8.93192 | 5055 ft | 196 kts | 277° |
| 2026-04-25 21:58 | 47.43217 | 8.91212 | 4999 ft | 187 kts | 276° |
| 2026-04-25 21:58 | 47.43345 | 8.89373 | 4995 ft | 175 kts | 276° |
| 2026-04-25 21:58 | 47.43470 | 8.87589 | 5013 ft | 175 kts | 276° |
| 2026-04-25 21:59 | 47.43599 | 8.85801 | 5016 ft | 175 kts | 276° |
| 2026-04-25 21:59 | 47.43729 | 8.84014 | 5018 ft | 175 kts | 276° |
| 2026-04-25 21:59 | 47.43859 | 8.82227 | 5018 ft | 175 kts | 276° |
| 2026-04-25 22:00 | 47.44119 | 8.78627 | 4646 ft | 176 kts | 276° |
| 2026-04-25 22:00 | 47.44245 | 8.76852 | 4369 ft | 174 kts | 277° |
| 2026-04-25 22:00 | 47.44371 | 8.75089 | 4107 ft | 173 kts | 277° |
| 2026-04-25 22:00 | 47.44497 | 8.73326 | 3853 ft | 172 kts | 278° |
| 2026-04-25 22:01 | 47.44620 | 8.71599 | 3620 ft | 170 kts | 278° |
| 2026-04-25 22:01 | 47.44744 | 8.69857 | 3365 ft | 171 kts | 278° |
| 2026-04-25 22:01 | 47.44869 | 8.68111 | 3104 ft | 170 kts | 278° |
| 2026-04-25 22:01 | 47.44951 | 8.66957 | 2934 ft | 163 kts | 278° |
| 2026-04-25 22:02 | 47.45103 | 8.64863 | 2602 ft | 149 kts | 279° |
| 2026-04-25 22:02 | 47.45217 | 8.63378 | 2331 ft | 141 kts | 278° |
| 2026-04-25 22:02 | 47.45308 | 8.61979 | 2070 ft | 133 kts | 274° |
| 2026-04-25 22:02 | 47.45385 | 8.60657 | 1939 ft | 130 kts | 277° |
| 2026-04-25 22:03 | 47.45492 | 8.59280 | 1778 ft | 136 kts | 277° |
| 2026-04-25 22:03 | 47.45601 | 8.57891 | 1595 ft | 136 kts | 277° |
| 2026-04-25 22:03 | 47.45700 | 8.56522 | 1424 ft | 133 kts | 277° |
| 2026-04-25 22:03 | 47.45770 | 8.55499 | 1406 ft | 73 kts | 276° |
| 2026-04-25 22:04 | 47.45800 | 8.55040 | 1400 ft | 34 kts | 276° |
| 2026-04-25 22:04 | 47.45862 | 8.54777 | 1404 ft | 19 kts | 317° |
| 2026-04-25 22:04 | 47.45923 | 8.54778 | 1405 ft | 4 kts | 69° |
| 2026-04-25 22:04 | 47.45923 | 8.54841 | 1400 ft | 8 kts | 96° |
| 2026-04-25 22:05 | 47.45915 | 8.54919 | 1400 ft | 7 kts | 97° |
| 2026-04-25 22:05 | 47.45920 | 8.54977 | 1399 ft | 4 kts | 51° |
| 2026-04-25 22:05 | 47.45945 | 8.54994 | 1403 ft | 5 kts | 24° |
| 2026-04-25 22:05 | 47.45995 | 8.55029 | 1399 ft | 11 kts | 27° |
| 2026-04-25 22:06 | 47.46073 | 8.55050 | 1403 ft | 12 kts | 343° |
| 2026-04-25 22:06 | 47.46156 | 8.54994 | 1406 ft | 14 kts | 335° |
| 2026-04-25 22:06 | 47.46242 | 8.54951 | 1397 ft | 6 kts | 9° |
| 2026-04-25 22:06 | 47.46276 | 8.54992 | 1401 ft | 7 kts | 54° |
| 2026-04-25 22:07 | 47.46285 | 8.55060 | 1398 ft | 7 kts | 88° |
| 2026-04-25 22:07 | 47.46284 | 8.55108 | 1399 ft | 7 kts | 93° |
| 2026-04-25 22:07 | 47.46278 | 8.55174 | 1402 ft | 3 kts | 98° |
| 2026-04-25 22:07 | 47.46270 | 8.55194 | 1399 ft | 1 kts | 134° |
| 2026-04-25 22:08 | 47.46257 | 8.55197 | 1408 ft | 4 kts | 171° |
| 2026-04-25 22:08 | 47.46226 | 8.55194 | 1406 ft | 5 kts | 185° |
| 2026-04-25 22:08 | 47.46205 | 8.55191 | 1406 ft | 2 kts | 186° |
| 2026-04-25 22:08 | 47.46198 | 8.55190 | 1406 ft | 1 kts | 185° |
| 2026-04-25 22:09 | 47.46197 | 8.55189 | 1406 ft | 0 kts | 185° |